<?xml version="1.0" encoding="UTF-8" standalone="no" ?><gpx xmlns="http://www.topografix.com/GPX/1/1" xmlns:gpxx="http://www.garmin.com/xmlschemas/GpxExtensions/v3" xmlns:wptx1="http://www.garmin.com/xmlschemas/WaypointExtension/v1" xmlns:gpxtpx="http://www.garmin.com/xmlschemas/TrackPointExtension/v1" creator="GuideVTT.com" version="1.1" xmlns:xsi="http://www.w3.org/2001/XMLSchema-instance" xsi:schemaLocation="http://www.topografix.com/GPX/1/1 http://www.topografix.com/GPX/1/1/gpx.xsd http://www.garmin.com/xmlschemas/GpxExtensions/v3 http://www8.garmin.com/xmlschemas/GpxExtensionsv3.xsd http://www.garmin.com/xmlschemas/WaypointExtension/v1 http://www8.garmin.com/xmlschemas/WaypointExtensionv1.xsd http://www.garmin.com/xmlschemas/TrackPointExtension/v1 http://www.garmin.com/xmlschemas/TrackPointExtensionv1.xsd">
<metadata><link href="http://www.garmin.com"><text>Garmin International</text></link><time>2013-06-22T15:13:50Z</time></metadata>
<trk><name>altavilla-cormondes-altavilla.gpx</name><extensions><gpxx:TrackExtension><gpxx:DisplayColor>Cyan</gpxx:DisplayColor></gpxx:TrackExtension></extensions><trkseg>
<trkpt lat="46.93410018" lon="7.15593282"><ele>546.16626</ele><time>2007-09-21T13:44:29Z</time></trkpt>
<trkpt lat="46.93410018" lon="7.15593282"><ele>545.204834</ele><time>2007-09-21T13:44:40Z</time></trkpt>
<trkpt lat="46.93418057" lon="7.15569603"><ele>543.762817</ele><time>2007-09-21T13:44:47Z</time></trkpt>
<trkpt lat="46.93428836" lon="7.15561666"><ele>545.204834</ele><time>2007-09-21T13:44:53Z</time></trkpt>
<trkpt lat="46.93441476" lon="7.15581296"><ele>546.16626</ele><time>2007-09-21T13:45:00Z</time></trkpt>
<trkpt lat="46.93454074" lon="7.15582545"><ele>547.127441</ele><time>2007-09-21T13:45:04Z</time></trkpt>
<trkpt lat="46.93486420" lon="7.15567927"><ele>549.050049</ele><time>2007-09-21T13:45:15Z</time></trkpt>
<trkpt lat="46.93524155" lon="7.15550660"><ele>550.011475</ele><time>2007-09-21T13:45:28Z</time></trkpt>
<trkpt lat="46.93561890" lon="7.15532069"><ele>553.856689</ele><time>2007-09-21T13:45:39Z</time></trkpt>
<trkpt lat="46.93584387" lon="7.15535891"><ele>555.779297</ele><time>2007-09-21T13:45:47Z</time></trkpt>
<trkpt lat="46.93589819" lon="7.15547685"><ele>555.779297</ele><time>2007-09-21T13:45:54Z</time></trkpt>
<trkpt lat="46.93614218" lon="7.15596149"><ele>558.182861</ele><time>2007-09-21T13:46:08Z</time></trkpt>
<trkpt lat="46.93634176" lon="7.15664327"><ele>560.105225</ele><time>2007-09-21T13:46:24Z</time></trkpt>
<trkpt lat="46.93660478" lon="7.15750870"><ele>561.06665</ele><time>2007-09-21T13:46:42Z</time></trkpt>
<trkpt lat="46.93692212" lon="7.15854445"><ele>560.105225</ele><time>2007-09-21T13:46:59Z</time></trkpt>
<trkpt lat="46.93718506" lon="7.15937049"><ele>557.221436</ele><time>2007-09-21T13:47:10Z</time></trkpt>
<trkpt lat="46.93723946" lon="7.15954090"><ele>555.779297</ele><time>2007-09-21T13:47:12Z</time></trkpt>
<trkpt lat="46.93762947" lon="7.16086532"><ele>553.856689</ele><time>2007-09-21T13:47:27Z</time></trkpt>
<trkpt lat="46.93777565" lon="7.16182329"><ele>550.972656</ele><time>2007-09-21T13:47:37Z</time></trkpt>
<trkpt lat="46.93782116" lon="7.16202001"><ele>549.050049</ele><time>2007-09-21T13:47:39Z</time></trkpt>
<trkpt lat="46.93820120" lon="7.16296365"><ele>547.127441</ele><time>2007-09-21T13:47:49Z</time></trkpt>
<trkpt lat="46.93850781" lon="7.16329037"><ele>547.127441</ele><time>2007-09-21T13:47:57Z</time></trkpt>
<trkpt lat="46.93861560" lon="7.16321108"><ele>545.204834</ele><time>2007-09-21T13:48:00Z</time></trkpt>
<trkpt lat="46.93879464" lon="7.16284244"><ele>541.84021</ele><time>2007-09-21T13:48:05Z</time></trkpt>
<trkpt lat="46.93900938" lon="7.16236853"><ele>538.956299</ele><time>2007-09-21T13:48:11Z</time></trkpt>
<trkpt lat="46.93906294" lon="7.16222377"><ele>537.994995</ele><time>2007-09-21T13:48:13Z</time></trkpt>
<trkpt lat="46.93918834" lon="7.16198673"><ele>537.033691</ele><time>2007-09-21T13:48:15Z</time></trkpt>
<trkpt lat="46.93946594" lon="7.16145993"><ele>535.110962</ele><time>2007-09-21T13:48:22Z</time></trkpt>
<trkpt lat="46.93955513" lon="7.16114427"><ele>535.110962</ele><time>2007-09-21T13:48:26Z</time></trkpt>
<trkpt lat="46.93957273" lon="7.16098661"><ele>535.110962</ele><time>2007-09-21T13:48:28Z</time></trkpt>
<trkpt lat="46.93960835" lon="7.16084193"><ele>533.188354</ele><time>2007-09-21T13:48:30Z</time></trkpt>
<trkpt lat="46.93975193" lon="7.16069676"><ele>532.227051</ele><time>2007-09-21T13:48:35Z</time></trkpt>
<trkpt lat="46.93991412" lon="7.16082727"><ele>530.785156</ele><time>2007-09-21T13:48:39Z</time></trkpt>
<trkpt lat="46.94018486" lon="7.16116732"><ele>530.785156</ele><time>2007-09-21T13:48:45Z</time></trkpt>
<trkpt lat="46.94046473" lon="7.16161240"><ele>532.227051</ele><time>2007-09-21T13:48:53Z</time></trkpt>
<trkpt lat="46.94068174" lon="7.16207097"><ele>533.188354</ele><time>2007-09-21T13:49:00Z</time></trkpt>
<trkpt lat="46.94082675" lon="7.16250365"><ele>534.149658</ele><time>2007-09-21T13:49:07Z</time></trkpt>
<trkpt lat="46.94098081" lon="7.16297563"><ele>534.149658</ele><time>2007-09-21T13:49:14Z</time></trkpt>
<trkpt lat="46.94140619" lon="7.16407668"><ele>533.188354</ele><time>2007-09-21T13:49:28Z</time></trkpt>
<trkpt lat="46.94194053" lon="7.16558442"><ele>534.149658</ele><time>2007-09-21T13:49:46Z</time></trkpt>
<trkpt lat="46.94233951" lon="7.16693516"><ele>534.149658</ele><time>2007-09-21T13:50:02Z</time></trkpt>
<trkpt lat="46.94268418" lon="7.16814173"><ele>529.82373</ele><time>2007-09-21T13:50:14Z</time></trkpt>
<trkpt lat="46.94287612" lon="7.16944110"><ele>525.978394</ele><time>2007-09-21T13:50:25Z</time></trkpt>
<trkpt lat="46.94291325" lon="7.16991375"><ele>526.939819</ele><time>2007-09-21T13:50:29Z</time></trkpt>
<trkpt lat="46.94301325" lon="7.17035975"><ele>525.978394</ele><time>2007-09-21T13:50:33Z</time></trkpt>
<trkpt lat="46.94313160" lon="7.17097649"><ele>525.978394</ele><time>2007-09-21T13:50:39Z</time></trkpt>
<trkpt lat="46.94320461" lon="7.17140959"><ele>524.055786</ele><time>2007-09-21T13:50:43Z</time></trkpt>
<trkpt lat="46.94343201" lon="7.17251172"><ele>523.094604</ele><time>2007-09-21T13:50:53Z</time></trkpt>
<trkpt lat="46.94365966" lon="7.17369265"><ele>518.768555</ele><time>2007-09-21T13:51:03Z</time></trkpt>
<trkpt lat="46.94402402" lon="7.17567413"><ele>516.845947</ele><time>2007-09-21T13:51:20Z</time></trkpt>
<trkpt lat="46.94410675" lon="7.17643554"><ele>514.92334</ele><time>2007-09-21T13:51:27Z</time></trkpt>
<trkpt lat="46.94414380" lon="7.17689512"><ele>513.000732</ele><time>2007-09-21T13:51:31Z</time></trkpt>
<trkpt lat="46.94417188" lon="7.17739410"><ele>513.962036</ele><time>2007-09-21T13:51:36Z</time></trkpt>
<trkpt lat="46.94402821" lon="7.17748672"><ele>515.884644</ele><time>2007-09-21T13:51:42Z</time></trkpt>
<trkpt lat="46.94376703" lon="7.17736979"><ele>518.768555</ele><time>2007-09-21T13:51:51Z</time></trkpt>
<trkpt lat="46.94367701" lon="7.17733081"><ele>521.171997</ele><time>2007-09-21T13:51:54Z</time></trkpt>
<trkpt lat="46.94359596" lon="7.17729175"><ele>523.094604</ele><time>2007-09-21T13:51:57Z</time></trkpt>
<trkpt lat="46.94318181" lon="7.17714935"><ele>525.017212</ele><time>2007-09-21T13:52:11Z</time></trkpt>
<trkpt lat="46.94310989" lon="7.17714968"><ele>525.978394</ele><time>2007-09-21T13:52:13Z</time></trkpt>
<trkpt lat="46.94233716" lon="7.17753433"><ele>524.055786</ele><time>2007-09-21T13:52:28Z</time></trkpt>
<trkpt lat="46.94136688" lon="7.17806440"><ele>525.978394</ele><time>2007-09-21T13:52:46Z</time></trkpt>
<trkpt lat="46.94091769" lon="7.17830295"><ele>526.939819</ele><time>2007-09-21T13:52:58Z</time></trkpt>
<trkpt lat="46.94071971" lon="7.17827763"><ele>528.862549</ele><time>2007-09-21T13:53:04Z</time></trkpt>
<trkpt lat="46.94071066" lon="7.17823832"><ele>528.862549</ele><time>2007-09-21T13:53:05Z</time></trkpt>
<trkpt lat="46.94072717" lon="7.17759468"><ele>532.227051</ele><time>2007-09-21T13:53:18Z</time></trkpt>
<trkpt lat="46.94074385" lon="7.17701674"><ele>535.110962</ele><time>2007-09-21T13:53:29Z</time></trkpt>
<trkpt lat="46.94073471" lon="7.17696419"><ele>535.110962</ele><time>2007-09-21T13:53:30Z</time></trkpt>
<trkpt lat="46.94069842" lon="7.17681994"><ele>535.110962</ele><time>2007-09-21T13:53:33Z</time></trkpt>
<trkpt lat="46.94067093" lon="7.17660989"><ele>536.072388</ele><time>2007-09-21T13:53:37Z</time></trkpt>
<trkpt lat="46.94064310" lon="7.17622918"><ele>537.994995</ele><time>2007-09-21T13:53:44Z</time></trkpt>
<trkpt lat="46.94052516" lon="7.17580950"><ele>539.917603</ele><time>2007-09-21T13:53:53Z</time></trkpt>
<trkpt lat="46.94046138" lon="7.17542896"><ele>541.84021</ele><time>2007-09-21T13:54:02Z</time></trkpt>
<trkpt lat="46.94036222" lon="7.17533751"><ele>542.801514</ele><time>2007-09-21T13:54:08Z</time></trkpt>
<trkpt lat="46.94016508" lon="7.17566676"><ele>545.204834</ele><time>2007-09-21T13:54:20Z</time></trkpt>
<trkpt lat="46.93997732" lon="7.17617990"><ele>546.16626</ele><time>2007-09-21T13:54:32Z</time></trkpt>
<trkpt lat="46.93961916" lon="7.17689085"><ele>546.16626</ele><time>2007-09-21T13:54:46Z</time></trkpt>
<trkpt lat="46.93937684" lon="7.17712839"><ele>545.204834</ele><time>2007-09-21T13:54:52Z</time></trkpt>
<trkpt lat="46.93905297" lon="7.17711691"><ele>541.84021</ele><time>2007-09-21T13:54:57Z</time></trkpt>
<trkpt lat="46.93876505" lon="7.17710517"><ele>539.917603</ele><time>2007-09-21T13:55:01Z</time></trkpt>
<trkpt lat="46.93845936" lon="7.17715915"><ele>535.110962</ele><time>2007-09-21T13:55:05Z</time></trkpt>
<trkpt lat="46.93783013" lon="7.17734607"><ele>535.110962</ele><time>2007-09-21T13:55:14Z</time></trkpt>
<trkpt lat="46.93756895" lon="7.17721598"><ele>537.994995</ele><time>2007-09-21T13:55:20Z</time></trkpt>
<trkpt lat="46.93752361" lon="7.17704549"><ele>538.956299</ele><time>2007-09-21T13:55:23Z</time></trkpt>
<trkpt lat="46.93754967" lon="7.17663830"><ele>537.994995</ele><time>2007-09-21T13:55:29Z</time></trkpt>
<trkpt lat="46.93754003" lon="7.17637570"><ele>538.956299</ele><time>2007-09-21T13:55:33Z</time></trkpt>
<trkpt lat="46.93748547" lon="7.17610010"><ele>538.956299</ele><time>2007-09-21T13:55:37Z</time></trkpt>
<trkpt lat="46.93705120" lon="7.17501221"><ele>541.84021</ele><time>2007-09-21T13:55:55Z</time></trkpt>
<trkpt lat="46.93658106" lon="7.17397705"><ele>545.204834</ele><time>2007-09-21T13:56:13Z</time></trkpt>
<trkpt lat="46.93649070" lon="7.17380681"><ele>545.204834</ele><time>2007-09-21T13:56:16Z</time></trkpt>
<trkpt lat="46.93601185" lon="7.17288991"><ele>543.762817</ele><time>2007-09-21T13:56:31Z</time></trkpt>
<trkpt lat="46.93564095" lon="7.17198559"><ele>542.801514</ele><time>2007-09-21T13:56:44Z</time></trkpt>
<trkpt lat="46.93552318" lon="7.17164470"><ele>542.801514</ele><time>2007-09-21T13:56:49Z</time></trkpt>
<trkpt lat="46.93533341" lon="7.17129107"><ele>542.801514</ele><time>2007-09-21T13:56:53Z</time></trkpt>
<trkpt lat="46.93525219" lon="7.17116014"><ele>542.801514</ele><time>2007-09-21T13:56:55Z</time></trkpt>
<trkpt lat="46.93512571" lon="7.17091128"><ele>543.762817</ele><time>2007-09-21T13:56:58Z</time></trkpt>
<trkpt lat="46.93453982" lon="7.17041516"><ele>545.204834</ele><time>2007-09-21T13:57:10Z</time></trkpt>
<trkpt lat="46.93435055" lon="7.17024542"><ele>543.762817</ele><time>2007-09-21T13:57:14Z</time></trkpt>
<trkpt lat="46.93414285" lon="7.16990503"><ele>543.762817</ele><time>2007-09-21T13:57:19Z</time></trkpt>
<trkpt lat="46.93378100" lon="7.16902703"><ele>541.84021</ele><time>2007-09-21T13:57:30Z</time></trkpt>
<trkpt lat="46.93369911" lon="7.16863342"><ele>545.204834</ele><time>2007-09-21T13:57:35Z</time></trkpt>
<trkpt lat="46.93368981" lon="7.16850216"><ele>542.801514</ele><time>2007-09-21T13:57:37Z</time></trkpt>
<trkpt lat="46.93369819" lon="7.16826579"><ele>539.917603</ele><time>2007-09-21T13:57:40Z</time></trkpt>
<trkpt lat="46.93367933" lon="7.16787192"><ele>540.878906</ele><time>2007-09-21T13:57:45Z</time></trkpt>
<trkpt lat="46.93366994" lon="7.16772750"><ele>540.878906</ele><time>2007-09-21T13:57:47Z</time></trkpt>
<trkpt lat="46.93372258" lon="7.16714940"><ele>542.801514</ele><time>2007-09-21T13:57:55Z</time></trkpt>
<trkpt lat="46.93374907" lon="7.16696542"><ele>542.801514</ele><time>2007-09-21T13:57:58Z</time></trkpt>
<trkpt lat="46.93373063" lon="7.16674229"><ele>541.84021</ele><time>2007-09-21T13:58:01Z</time></trkpt>
<trkpt lat="46.93361253" lon="7.16627014"><ele>541.84021</ele><time>2007-09-21T13:58:07Z</time></trkpt>
<trkpt lat="46.93356718" lon="7.16612589"><ele>541.84021</ele><time>2007-09-21T13:58:09Z</time></trkpt>
<trkpt lat="46.93343122" lon="7.16569330"><ele>542.801514</ele><time>2007-09-21T13:58:15Z</time></trkpt>
<trkpt lat="46.93331354" lon="7.16536556"><ele>542.801514</ele><time>2007-09-21T13:58:19Z</time></trkpt>
<trkpt lat="46.93324104" lon="7.16514269"><ele>542.801514</ele><time>2007-09-21T13:58:22Z</time></trkpt>
<trkpt lat="46.93321371" lon="7.16499835"><ele>542.801514</ele><time>2007-09-21T13:58:24Z</time></trkpt>
<trkpt lat="46.93307784" lon="7.16459200"><ele>542.801514</ele><time>2007-09-21T13:58:29Z</time></trkpt>
<trkpt lat="46.93302336" lon="7.16439527"><ele>542.801514</ele><time>2007-09-21T13:58:31Z</time></trkpt>
<trkpt lat="46.93295094" lon="7.16419872"><ele>542.801514</ele><time>2007-09-21T13:58:34Z</time></trkpt>
<trkpt lat="46.93276059" lon="7.16360872"><ele>545.204834</ele><time>2007-09-21T13:58:41Z</time></trkpt>
<trkpt lat="46.93246152" lon="7.16266483"><ele>546.16626</ele><time>2007-09-21T13:58:54Z</time></trkpt>
<trkpt lat="46.93245239" lon="7.16259920"><ele>546.16626</ele><time>2007-09-21T13:58:55Z</time></trkpt>
<trkpt lat="46.93239790" lon="7.16238932"><ele>546.16626</ele><time>2007-09-21T13:58:58Z</time></trkpt>
<trkpt lat="46.93201711" lon="7.16118325"><ele>547.127441</ele><time>2007-09-21T13:59:14Z</time></trkpt>
<trkpt lat="46.93190823" lon="7.16077672"><ele>547.127441</ele><time>2007-09-21T13:59:19Z</time></trkpt>
<trkpt lat="46.93181754" lon="7.16047514"><ele>547.127441</ele><time>2007-09-21T13:59:23Z</time></trkpt>
<trkpt lat="46.93171771" lon="7.16012109"><ele>548.088867</ele><time>2007-09-21T13:59:28Z</time></trkpt>
<trkpt lat="46.93123810" lon="7.15894176"><ele>549.050049</ele><time>2007-09-21T13:59:45Z</time></trkpt>
<trkpt lat="46.93116585" lon="7.15883707"><ele>549.050049</ele><time>2007-09-21T13:59:47Z</time></trkpt>
<trkpt lat="46.93094096" lon="7.15881201"><ele>549.050049</ele><time>2007-09-21T13:59:55Z</time></trkpt>
<trkpt lat="46.93084340" lon="7.15937720"><ele>550.011475</ele><time>2007-09-21T14:00:03Z</time></trkpt>
<trkpt lat="46.93082621" lon="7.15970552"><ele>549.050049</ele><time>2007-09-21T14:00:07Z</time></trkpt>
<trkpt lat="46.93094490" lon="7.16042711"><ele>549.050049</ele><time>2007-09-21T14:00:17Z</time></trkpt>
<trkpt lat="46.93094515" lon="7.16053222"><ele>548.088867</ele><time>2007-09-21T14:00:19Z</time></trkpt>
<trkpt lat="46.93101799" lon="7.16088636"><ele>548.088867</ele><time>2007-09-21T14:00:23Z</time></trkpt>
<trkpt lat="46.93108186" lon="7.16126681"><ele>547.127441</ele><time>2007-09-21T14:00:27Z</time></trkpt>
<trkpt lat="46.93111162" lon="7.16243533"><ele>548.088867</ele><time>2007-09-21T14:00:40Z</time></trkpt>
<trkpt lat="46.93107893" lon="7.16380117"><ele>548.088867</ele><time>2007-09-21T14:00:55Z</time></trkpt>
<trkpt lat="46.93118932" lon="7.16482485"><ele>549.050049</ele><time>2007-09-21T14:01:07Z</time></trkpt>
<trkpt lat="46.93120767" lon="7.16496918"><ele>550.011475</ele><time>2007-09-21T14:01:09Z</time></trkpt>
<trkpt lat="46.93130004" lon="7.16597987"><ele>552.895264</ele><time>2007-09-21T14:01:24Z</time></trkpt>
<trkpt lat="46.93131857" lon="7.16620300"><ele>553.856689</ele><time>2007-09-21T14:01:28Z</time></trkpt>
<trkpt lat="46.93133768" lon="7.16667557"><ele>557.221436</ele><time>2007-09-21T14:01:36Z</time></trkpt>
<trkpt lat="46.93135620" lon="7.16691186"><ele>560.105225</ele><time>2007-09-21T14:01:40Z</time></trkpt>
<trkpt lat="46.93125880" lon="7.16756891"><ele>562.989258</ele><time>2007-09-21T14:01:53Z</time></trkpt>
<trkpt lat="46.93107960" lon="7.16783244"><ele>565.873291</ele><time>2007-09-21T14:02:01Z</time></trkpt>
<trkpt lat="46.93076536" lon="7.16810980"><ele>567.795654</ele><time>2007-09-21T14:02:13Z</time></trkpt>
<trkpt lat="46.93034325" lon="7.16838766"><ele>565.873291</ele><time>2007-09-21T14:02:25Z</time></trkpt>
<trkpt lat="46.92969600" lon="7.16856167"><ele>567.795654</ele><time>2007-09-21T14:02:39Z</time></trkpt>
<trkpt lat="46.92966901" lon="7.16854868"><ele>569.237793</ele><time>2007-09-21T14:02:40Z</time></trkpt>
<trkpt lat="46.92940691" lon="7.16803788"><ele>570.198975</ele><time>2007-09-21T14:02:52Z</time></trkpt>
<trkpt lat="46.92918940" lon="7.16732986"><ele>573.083252</ele><time>2007-09-21T14:03:06Z</time></trkpt>
<trkpt lat="46.92900818" lon="7.16677934"><ele>574.044434</ele><time>2007-09-21T14:03:17Z</time></trkpt>
<trkpt lat="46.92894456" lon="7.16653015"><ele>574.044434</ele><time>2007-09-21T14:03:22Z</time></trkpt>
<trkpt lat="46.92865530" lon="7.16592757"><ele>575.005859</ele><time>2007-09-21T14:03:34Z</time></trkpt>
<trkpt lat="46.92860057" lon="7.16559959"><ele>575.005859</ele><time>2007-09-21T14:03:40Z</time></trkpt>
<trkpt lat="46.92850954" lon="7.16515367"><ele>575.967041</ele><time>2007-09-21T14:03:48Z</time></trkpt>
<trkpt lat="46.92844600" lon="7.16490448"><ele>575.005859</ele><time>2007-09-21T14:03:52Z</time></trkpt>
<trkpt lat="46.92835489" lon="7.16444540"><ele>575.005859</ele><time>2007-09-21T14:03:58Z</time></trkpt>
<trkpt lat="46.92824593" lon="7.16401264"><ele>574.044434</ele><time>2007-09-21T14:04:03Z</time></trkpt>
<trkpt lat="46.92820025" lon="7.16372397"><ele>574.044434</ele><time>2007-09-21T14:04:06Z</time></trkpt>
<trkpt lat="46.92818181" lon="7.16354024"><ele>573.083252</ele><time>2007-09-21T14:04:08Z</time></trkpt>
<trkpt lat="46.92809103" lon="7.16318619"><ele>572.121826</ele><time>2007-09-21T14:04:12Z</time></trkpt>
<trkpt lat="46.92804543" lon="7.16292383"><ele>572.121826</ele><time>2007-09-21T14:04:15Z</time></trkpt>
<trkpt lat="46.92799984" lon="7.16264832"><ele>571.1604</ele><time>2007-09-21T14:04:18Z</time></trkpt>
<trkpt lat="46.92789087" lon="7.16225496"><ele>570.198975</ele><time>2007-09-21T14:04:22Z</time></trkpt>
<trkpt lat="46.92781820" lon="7.16194022"><ele>567.795654</ele><time>2007-09-21T14:04:25Z</time></trkpt>
<trkpt lat="46.92764604" lon="7.16141584"><ele>567.795654</ele><time>2007-09-21T14:04:30Z</time></trkpt>
<trkpt lat="46.92731964" lon="7.16036710"><ele>563.950439</ele><time>2007-09-21T14:04:40Z</time></trkpt>
<trkpt lat="46.92724714" lon="7.16015738"><ele>562.989258</ele><time>2007-09-21T14:04:42Z</time></trkpt>
<trkpt lat="46.92683978" lon="7.15909598"><ele>563.950439</ele><time>2007-09-21T14:04:53Z</time></trkpt>
<trkpt lat="46.92657743" lon="7.15846709"><ele>560.105225</ele><time>2007-09-21T14:05:00Z</time></trkpt>
<trkpt lat="46.92655019" lon="7.15837531"><ele>560.105225</ele><time>2007-09-21T14:05:01Z</time></trkpt>
<trkpt lat="46.92629680" lon="7.15777265"><ele>562.028076</ele><time>2007-09-21T14:05:08Z</time></trkpt>
<trkpt lat="46.92622455" lon="7.15762856"><ele>562.028076</ele><time>2007-09-21T14:05:10Z</time></trkpt>
<trkpt lat="46.92602623" lon="7.15748523"><ele>562.989258</ele><time>2007-09-21T14:05:14Z</time></trkpt>
<trkpt lat="46.92580168" lon="7.15761767"><ele>564.911865</ele><time>2007-09-21T14:05:19Z</time></trkpt>
<trkpt lat="46.92574837" lon="7.15788052"><ele>563.950439</ele><time>2007-09-21T14:05:23Z</time></trkpt>
<trkpt lat="46.92569632" lon="7.15865551"><ele>563.950439</ele><time>2007-09-21T14:05:36Z</time></trkpt>
<trkpt lat="46.92570571" lon="7.15881301"><ele>563.950439</ele><time>2007-09-21T14:05:39Z</time></trkpt>
<trkpt lat="46.92569766" lon="7.15920696"><ele>564.911865</ele><time>2007-09-21T14:05:45Z</time></trkpt>
<trkpt lat="46.92534822" lon="7.15978649"><ele>563.950439</ele><time>2007-09-21T14:05:58Z</time></trkpt>
<trkpt lat="46.92504295" lon="7.16002436"><ele>562.989258</ele><time>2007-09-21T14:06:05Z</time></trkpt>
<trkpt lat="46.92476492" lon="7.16035411"><ele>561.06665</ele><time>2007-09-21T14:06:12Z</time></trkpt>
<trkpt lat="46.92468479" lon="7.16069584"><ele>561.06665</ele><time>2007-09-21T14:06:17Z</time></trkpt>
<trkpt lat="46.92463232" lon="7.16131325"><ele>561.06665</ele><time>2007-09-21T14:06:25Z</time></trkpt>
<trkpt lat="46.92456996" lon="7.16157611"><ele>561.06665</ele><time>2007-09-21T14:06:28Z</time></trkpt>
<trkpt lat="46.92421189" lon="7.16227381"><ele>562.028076</ele><time>2007-09-21T14:06:36Z</time></trkpt>
<trkpt lat="46.92402380" lon="7.16261622"><ele>561.06665</ele><time>2007-09-21T14:06:41Z</time></trkpt>
<trkpt lat="46.92395213" lon="7.16272158"><ele>561.06665</ele><time>2007-09-21T14:06:43Z</time></trkpt>
<trkpt lat="46.92339582" lon="7.16332843"><ele>559.144043</ele><time>2007-09-21T14:06:51Z</time></trkpt>
<trkpt lat="46.92326121" lon="7.16344728"><ele>558.182861</ele><time>2007-09-21T14:06:53Z</time></trkpt>
<trkpt lat="46.92305476" lon="7.16363210"><ele>555.779297</ele><time>2007-09-21T14:06:56Z</time></trkpt>
<trkpt lat="46.92265084" lon="7.16400183"><ele>553.856689</ele><time>2007-09-21T14:07:02Z</time></trkpt>
<trkpt lat="46.92245353" lon="7.16425228"><ele>555.779297</ele><time>2007-09-21T14:07:08Z</time></trkpt>
<trkpt lat="46.92243576" lon="7.16434423"><ele>554.817871</ele><time>2007-09-21T14:07:15Z</time></trkpt>
<trkpt lat="46.92255386" lon="7.16482946"><ele>552.895264</ele><time>2007-09-21T14:07:23Z</time></trkpt>
<trkpt lat="46.92255462" lon="7.16513137"><ele>552.895264</ele><time>2007-09-21T14:07:27Z</time></trkpt>
<trkpt lat="46.92236728" lon="7.16580193"><ele>550.972656</ele><time>2007-09-21T14:07:34Z</time></trkpt>
<trkpt lat="46.92215228" lon="7.16615749"><ele>550.011475</ele><time>2007-09-21T14:07:38Z</time></trkpt>
<trkpt lat="46.92197283" lon="7.16636846"><ele>550.011475</ele><time>2007-09-21T14:07:41Z</time></trkpt>
<trkpt lat="46.92151610" lon="7.16719793"><ele>552.895264</ele><time>2007-09-21T14:07:52Z</time></trkpt>
<trkpt lat="46.92139992" lon="7.16752675"><ele>553.856689</ele><time>2007-09-21T14:07:57Z</time></trkpt>
<trkpt lat="46.92136439" lon="7.16772381"><ele>554.817871</ele><time>2007-09-21T14:08:00Z</time></trkpt>
<trkpt lat="46.92156505" lon="7.16887817"><ele>553.856689</ele><time>2007-09-21T14:08:14Z</time></trkpt>
<trkpt lat="46.92171919" lon="7.16940254"><ele>553.856689</ele><time>2007-09-21T14:08:20Z</time></trkpt>
<trkpt lat="46.92199110" lon="7.17028088"><ele>552.895264</ele><time>2007-09-21T14:08:30Z</time></trkpt>
<trkpt lat="46.92216335" lon="7.17085764"><ele>552.895264</ele><time>2007-09-21T14:08:38Z</time></trkpt>
<trkpt lat="46.92250768" lon="7.17191946"><ele>552.895264</ele><time>2007-09-21T14:08:50Z</time></trkpt>
<trkpt lat="46.92267071" lon="7.17241751"><ele>554.817871</ele><time>2007-09-21T14:08:56Z</time></trkpt>
<trkpt lat="46.92274321" lon="7.17264039"><ele>555.779297</ele><time>2007-09-21T14:08:59Z</time></trkpt>
<trkpt lat="46.92281563" lon="7.17285010"><ele>554.817871</ele><time>2007-09-21T14:09:02Z</time></trkpt>
<trkpt lat="46.92289735" lon="7.17316476"><ele>555.779297</ele><time>2007-09-21T14:09:07Z</time></trkpt>
<trkpt lat="46.92300632" lon="7.17359751"><ele>558.182861</ele><time>2007-09-21T14:09:14Z</time></trkpt>
<trkpt lat="46.92321452" lon="7.17418727"><ele>558.182861</ele><time>2007-09-21T14:09:21Z</time></trkpt>
<trkpt lat="46.92337763" lon="7.17471164"><ele>559.144043</ele><time>2007-09-21T14:09:28Z</time></trkpt>
<trkpt lat="46.92355860" lon="7.17517029"><ele>559.144043</ele><time>2007-09-21T14:09:35Z</time></trkpt>
<trkpt lat="46.92365834" lon="7.17551119"><ele>559.144043</ele><time>2007-09-21T14:09:40Z</time></trkpt>
<trkpt lat="46.92374024" lon="7.17590463"><ele>559.144043</ele><time>2007-09-21T14:09:45Z</time></trkpt>
<trkpt lat="46.92380394" lon="7.17621946"><ele>559.144043</ele><time>2007-09-21T14:09:49Z</time></trkpt>
<trkpt lat="46.92381333" lon="7.17640319"><ele>559.144043</ele><time>2007-09-21T14:09:51Z</time></trkpt>
<trkpt lat="46.92387686" lon="7.17665238"><ele>559.144043</ele><time>2007-09-21T14:09:55Z</time></trkpt>
<trkpt lat="46.92403997" lon="7.17717675"><ele>558.182861</ele><time>2007-09-21T14:10:01Z</time></trkpt>
<trkpt lat="46.92413033" lon="7.17736015"><ele>558.182861</ele><time>2007-09-21T14:10:03Z</time></trkpt>
<trkpt lat="46.92423938" lon="7.17783230"><ele>558.182861</ele><time>2007-09-21T14:10:09Z</time></trkpt>
<trkpt lat="46.92432093" lon="7.17810757"><ele>557.221436</ele><time>2007-09-21T14:10:12Z</time></trkpt>
<trkpt lat="46.92434826" lon="7.17825190"><ele>557.221436</ele><time>2007-09-21T14:10:14Z</time></trkpt>
<trkpt lat="46.92440266" lon="7.17843547"><ele>555.779297</ele><time>2007-09-21T14:10:16Z</time></trkpt>
<trkpt lat="46.92450215" lon="7.17868441"><ele>553.856689</ele><time>2007-09-21T14:10:19Z</time></trkpt>
<trkpt lat="46.92453828" lon="7.17876303"><ele>553.856689</ele><time>2007-09-21T14:10:20Z</time></trkpt>
<trkpt lat="46.92469200" lon="7.17911675"><ele>553.856689</ele><time>2007-09-21T14:10:24Z</time></trkpt>
<trkpt lat="46.92489132" lon="7.17973290"><ele>552.895264</ele><time>2007-09-21T14:10:32Z</time></trkpt>
<trkpt lat="46.92493667" lon="7.17990339"><ele>552.895264</ele><time>2007-09-21T14:10:34Z</time></trkpt>
<trkpt lat="46.92505427" lon="7.18017857"><ele>552.895264</ele><time>2007-09-21T14:10:37Z</time></trkpt>
<trkpt lat="46.92523540" lon="7.18072909"><ele>552.895264</ele><time>2007-09-21T14:10:43Z</time></trkpt>
<trkpt lat="46.92545258" lon="7.18130576"><ele>553.856689</ele><time>2007-09-21T14:10:48Z</time></trkpt>
<trkpt lat="46.92558819" lon="7.18162025"><ele>553.856689</ele><time>2007-09-21T14:10:52Z</time></trkpt>
<trkpt lat="46.92575105" lon="7.18202652"><ele>554.817871</ele><time>2007-09-21T14:10:56Z</time></trkpt>
<trkpt lat="46.92583244" lon="7.18222308"><ele>554.817871</ele><time>2007-09-21T14:10:58Z</time></trkpt>
<trkpt lat="46.92605817" lon="7.18258962"><ele>555.779297</ele><time>2007-09-21T14:11:02Z</time></trkpt>
<trkpt lat="46.92608566" lon="7.18283898"><ele>555.779297</ele><time>2007-09-21T14:11:06Z</time></trkpt>
<trkpt lat="46.92595113" lon="7.18301031"><ele>557.221436</ele><time>2007-09-21T14:11:11Z</time></trkpt>
<trkpt lat="46.92576271" lon="7.18320812"><ele>558.182861</ele><time>2007-09-21T14:11:16Z</time></trkpt>
<trkpt lat="46.92552030" lon="7.18344566"><ele>559.144043</ele><time>2007-09-21T14:11:22Z</time></trkpt>
<trkpt lat="46.92510741" lon="7.18382838"><ele>561.06665</ele><time>2007-09-21T14:11:33Z</time></trkpt>
<trkpt lat="46.92480222" lon="7.18413181"><ele>561.06665</ele><time>2007-09-21T14:11:42Z</time></trkpt>
<trkpt lat="46.92445211" lon="7.18443540"><ele>562.028076</ele><time>2007-09-21T14:11:52Z</time></trkpt>
<trkpt lat="46.92414693" lon="7.18475198"><ele>562.028076</ele><time>2007-09-21T14:12:01Z</time></trkpt>
<trkpt lat="46.92411097" lon="7.18476531"><ele>562.028076</ele><time>2007-09-21T14:12:02Z</time></trkpt>
<trkpt lat="46.92374200" lon="7.18468828"><ele>562.028076</ele><time>2007-09-21T14:12:10Z</time></trkpt>
<trkpt lat="46.92334536" lon="7.18428310"><ele>562.989258</ele><time>2007-09-21T14:12:21Z</time></trkpt>
<trkpt lat="46.92323707" lon="7.18412611"><ele>562.989258</ele><time>2007-09-21T14:12:24Z</time></trkpt>
<trkpt lat="46.92315593" lon="7.18406081"><ele>562.028076</ele><time>2007-09-21T14:12:26Z</time></trkpt>
<trkpt lat="46.92256124" lon="7.18360408"><ele>562.028076</ele><time>2007-09-21T14:12:37Z</time></trkpt>
<trkpt lat="46.92248991" lon="7.18388018"><ele>561.06665</ele><time>2007-09-21T14:12:42Z</time></trkpt>
<trkpt lat="46.92247314" lon="7.18443163"><ele>559.144043</ele><time>2007-09-21T14:12:49Z</time></trkpt>
<trkpt lat="46.92248303" lon="7.18483865"><ele>559.144043</ele><time>2007-09-21T14:12:54Z</time></trkpt>
<trkpt lat="46.92251966" lon="7.18512733"><ele>558.182861</ele><time>2007-09-21T14:12:56Z</time></trkpt>
<trkpt lat="46.92258320" lon="7.18540267"><ele>558.182861</ele><time>2007-09-21T14:12:59Z</time></trkpt>
<trkpt lat="46.92261111" lon="7.18580961"><ele>555.779297</ele><time>2007-09-21T14:13:03Z</time></trkpt>
<trkpt lat="46.92263927" lon="7.18636089"><ele>553.856689</ele><time>2007-09-21T14:13:09Z</time></trkpt>
<trkpt lat="46.92268487" lon="7.18664948"><ele>552.895264</ele><time>2007-09-21T14:13:12Z</time></trkpt>
<trkpt lat="46.92270457" lon="7.18739773"><ele>550.972656</ele><time>2007-09-21T14:13:18Z</time></trkpt>
<trkpt lat="46.92268739" lon="7.18777861"><ele>550.011475</ele><time>2007-09-21T14:13:22Z</time></trkpt>
<trkpt lat="46.92266090" lon="7.18800190"><ele>548.088867</ele><time>2007-09-21T14:13:24Z</time></trkpt>
<trkpt lat="46.92259904" lon="7.18851420"><ele>545.204834</ele><time>2007-09-21T14:13:29Z</time></trkpt>
<trkpt lat="46.92256350" lon="7.18872450"><ele>543.762817</ele><time>2007-09-21T14:13:31Z</time></trkpt>
<trkpt lat="46.92252863" lon="7.18922356"><ele>540.878906</ele><time>2007-09-21T14:13:35Z</time></trkpt>
<trkpt lat="46.92247524" lon="7.18947326"><ele>539.917603</ele><time>2007-09-21T14:13:37Z</time></trkpt>
<trkpt lat="46.92237834" lon="7.19043215"><ele>537.033691</ele><time>2007-09-21T14:13:44Z</time></trkpt>
<trkpt lat="46.92236057" lon="7.19053726"><ele>537.033691</ele><time>2007-09-21T14:13:45Z</time></trkpt>
<trkpt lat="46.92219964" lon="7.19099751"><ele>532.227051</ele><time>2007-09-21T14:13:50Z</time></trkpt>
<trkpt lat="46.92215488" lon="7.19107646"><ele>532.227051</ele><time>2007-09-21T14:13:51Z</time></trkpt>
<trkpt lat="46.92195699" lon="7.19107739"><ele>532.227051</ele><time>2007-09-21T14:13:58Z</time></trkpt>
<trkpt lat="46.92158600" lon="7.19009444"><ele>533.188354</ele><time>2007-09-21T14:14:13Z</time></trkpt>
<trkpt lat="46.92154082" lon="7.18997651"><ele>533.188354</ele><time>2007-09-21T14:14:15Z</time></trkpt>
<trkpt lat="46.92144142" lon="7.18979311"><ele>534.149658</ele><time>2007-09-21T14:14:18Z</time></trkpt>
<trkpt lat="46.92081956" lon="7.18923144"><ele>533.188354</ele><time>2007-09-21T14:14:32Z</time></trkpt>
<trkpt lat="46.92003535" lon="7.18851303"><ele>534.149658</ele><time>2007-09-21T14:14:49Z</time></trkpt>
<trkpt lat="46.91961156" lon="7.18801615"><ele>535.110962</ele><time>2007-09-21T14:14:59Z</time></trkpt>
<trkpt lat="46.91940453" lon="7.18797768"><ele>535.110962</ele><time>2007-09-21T14:15:07Z</time></trkpt>
<trkpt lat="46.91933345" lon="7.18838504"><ele>534.149658</ele><time>2007-09-21T14:15:13Z</time></trkpt>
<trkpt lat="46.91895886" lon="7.18984399"><ele>530.785156</ele><time>2007-09-21T14:15:29Z</time></trkpt>
<trkpt lat="46.91855745" lon="7.19139498"><ele>530.785156</ele><time>2007-09-21T14:15:46Z</time></trkpt>
<trkpt lat="46.91851278" lon="7.19155272"><ele>530.785156</ele><time>2007-09-21T14:15:48Z</time></trkpt>
<trkpt lat="46.91836894" lon="7.19159279"><ele>532.227051</ele><time>2007-09-21T14:15:52Z</time></trkpt>
<trkpt lat="46.91758482" lon="7.19087438"><ele>530.785156</ele><time>2007-09-21T14:16:05Z</time></trkpt>
<trkpt lat="46.91644161" lon="7.19049887"><ele>527.901001</ele><time>2007-09-21T14:16:18Z</time></trkpt>
<trkpt lat="46.91511048" lon="7.19059694"><ele>529.82373</ele><time>2007-09-21T14:16:33Z</time></trkpt>
<trkpt lat="46.91429215" lon="7.19071889"><ele>529.82373</ele><time>2007-09-21T14:16:43Z</time></trkpt>
<trkpt lat="46.91409451" lon="7.19081168"><ele>532.227051</ele><time>2007-09-21T14:16:47Z</time></trkpt>
<trkpt lat="46.91413105" lon="7.19108719"><ele>530.785156</ele><time>2007-09-21T14:16:51Z</time></trkpt>
<trkpt lat="46.91438561" lon="7.19233308"><ele>532.227051</ele><time>2007-09-21T14:17:07Z</time></trkpt>
<trkpt lat="46.91450380" lon="7.19289701"><ele>533.188354</ele><time>2007-09-21T14:17:14Z</time></trkpt>
<trkpt lat="46.91461243" lon="7.19323782"><ele>529.82373</ele><time>2007-09-21T14:17:18Z</time></trkpt>
<trkpt lat="46.91484788" lon="7.19394559"><ele>527.901001</ele><time>2007-09-21T14:17:26Z</time></trkpt>
<trkpt lat="46.91528231" lon="7.19521696"><ele>526.939819</ele><time>2007-09-21T14:17:40Z</time></trkpt>
<trkpt lat="46.91543620" lon="7.19564946"><ele>529.82373</ele><time>2007-09-21T14:17:46Z</time></trkpt>
<trkpt lat="46.91535540" lon="7.19575491"><ele>529.82373</ele><time>2007-09-21T14:17:50Z</time></trkpt>
<trkpt lat="46.91466364" lon="7.19615179"><ele>528.862549</ele><time>2007-09-21T14:18:04Z</time></trkpt>
<trkpt lat="46.91449307" lon="7.19631013"><ele>526.939819</ele><time>2007-09-21T14:18:07Z</time></trkpt>
<trkpt lat="46.91436726" lon="7.19638942"><ele>525.978394</ele><time>2007-09-21T14:18:09Z</time></trkpt>
<trkpt lat="46.91404397" lon="7.19661405"><ele>523.094604</ele><time>2007-09-21T14:18:15Z</time></trkpt>
<trkpt lat="46.91402662" lon="7.19694229"><ele>521.171997</ele><time>2007-09-21T14:18:21Z</time></trkpt>
<trkpt lat="46.91383224" lon="7.19861029"><ele>516.845947</ele><time>2007-09-21T14:18:38Z</time></trkpt>
<trkpt lat="46.91374507" lon="7.19994963"><ele>517.807251</ele><time>2007-09-21T14:18:52Z</time></trkpt>
<trkpt lat="46.91373903" lon="7.20138051"><ele>515.884644</ele><time>2007-09-21T14:19:08Z</time></trkpt>
<trkpt lat="46.91375001" lon="7.20231249"><ele>513.962036</ele><time>2007-09-21T14:19:18Z</time></trkpt>
<trkpt lat="46.91378639" lon="7.20249614"><ele>513.000732</ele><time>2007-09-21T14:19:20Z</time></trkpt>
<trkpt lat="46.91430163" lon="7.20375409"><ele>512.039429</ele><time>2007-09-21T14:19:36Z</time></trkpt>
<trkpt lat="46.91482499" lon="7.20452632"><ele>509.155396</ele><time>2007-09-21T14:19:47Z</time></trkpt>
<trkpt lat="46.91498735" lon="7.20474877"><ele>509.155396</ele><time>2007-09-21T14:19:50Z</time></trkpt>
<trkpt lat="46.91530326" lon="7.20528555"><ele>507.232788</ele><time>2007-09-21T14:19:58Z</time></trkpt>
<trkpt lat="46.91546579" lon="7.20557372"><ele>505.790894</ele><time>2007-09-21T14:20:02Z</time></trkpt>
<trkpt lat="46.91559210" lon="7.20575695"><ele>504.829468</ele><time>2007-09-21T14:20:05Z</time></trkpt>
<trkpt lat="46.91644823" lon="7.20654091"><ele>502.906738</ele><time>2007-09-21T14:20:22Z</time></trkpt>
<trkpt lat="46.91678158" lon="7.20681508"><ele>502.906738</ele><time>2007-09-21T14:20:29Z</time></trkpt>
<trkpt lat="46.91701644" lon="7.20727357"><ele>503.868164</ele><time>2007-09-21T14:20:36Z</time></trkpt>
<trkpt lat="46.91706187" lon="7.20749653"><ele>504.829468</ele><time>2007-09-21T14:20:39Z</time></trkpt>
<trkpt lat="46.91699046" lon="7.20779878"><ele>507.232788</ele><time>2007-09-21T14:20:44Z</time></trkpt>
<trkpt lat="46.91664889" lon="7.20789216"><ele>510.116699</ele><time>2007-09-21T14:20:53Z</time></trkpt>
<trkpt lat="46.91647782" lon="7.20784036"><ele>510.116699</ele><time>2007-09-21T14:20:57Z</time></trkpt>
<trkpt lat="46.91636081" lon="7.20780155"><ele>512.039429</ele><time>2007-09-21T14:21:00Z</time></trkpt>
<trkpt lat="46.91623483" lon="7.20776265"><ele>515.884644</ele><time>2007-09-21T14:21:03Z</time></trkpt>
<trkpt lat="46.91619887" lon="7.20776282"><ele>515.884644</ele><time>2007-09-21T14:21:04Z</time></trkpt>
<trkpt lat="46.91587508" lon="7.20779048"><ele>516.845947</ele><time>2007-09-21T14:21:11Z</time></trkpt>
<trkpt lat="46.91555162" lon="7.20797564"><ele>517.807251</ele><time>2007-09-21T14:21:17Z</time></trkpt>
<trkpt lat="46.91529153" lon="7.20837059"><ele>518.768555</ele><time>2007-09-21T14:21:24Z</time></trkpt>
<trkpt lat="46.91516630" lon="7.20873864"><ele>517.807251</ele><time>2007-09-21T14:21:29Z</time></trkpt>
<trkpt lat="46.91509590" lon="7.20951347"><ele>518.768555</ele><time>2007-09-21T14:21:39Z</time></trkpt>
<trkpt lat="46.91514149" lon="7.20981522"><ele>518.768555</ele><time>2007-09-21T14:21:43Z</time></trkpt>
<trkpt lat="46.91526806" lon="7.21014286"><ele>520.210571</ele><time>2007-09-21T14:21:48Z</time></trkpt>
<trkpt lat="46.91543058" lon="7.21044411"><ele>522.133179</ele><time>2007-09-21T14:21:53Z</time></trkpt>
<trkpt lat="46.91552111" lon="7.21070630"><ele>521.171997</ele><time>2007-09-21T14:21:57Z</time></trkpt>
<trkpt lat="46.91542346" lon="7.21136310"><ele>520.210571</ele><time>2007-09-21T14:22:06Z</time></trkpt>
<trkpt lat="46.91536051" lon="7.21138959"><ele>518.768555</ele><time>2007-09-21T14:22:07Z</time></trkpt>
<trkpt lat="46.91514476" lon="7.21146922"><ele>516.845947</ele><time>2007-09-21T14:22:10Z</time></trkpt>
<trkpt lat="46.91411111" lon="7.21186744"><ele>514.92334</ele><time>2007-09-21T14:22:23Z</time></trkpt>
<trkpt lat="46.91362646" lon="7.21239458"><ele>515.884644</ele><time>2007-09-21T14:22:31Z</time></trkpt>
<trkpt lat="46.91345581" lon="7.21252651"><ele>517.807251</ele><time>2007-09-21T14:22:34Z</time></trkpt>
<trkpt lat="46.91335707" lon="7.21263195"><ele>518.768555</ele><time>2007-09-21T14:22:36Z</time></trkpt>
<trkpt lat="46.91297133" lon="7.21318491"><ele>520.210571</ele><time>2007-09-21T14:22:47Z</time></trkpt>
<trkpt lat="46.91278291" lon="7.21344827"><ele>518.768555</ele><time>2007-09-21T14:22:52Z</time></trkpt>
<trkpt lat="46.91244227" lon="7.21401413"><ele>520.210571</ele><time>2007-09-21T14:23:03Z</time></trkpt>
<trkpt lat="46.91225359" lon="7.21415930"><ele>520.210571</ele><time>2007-09-21T14:23:07Z</time></trkpt>
<trkpt lat="46.91170525" lon="7.21434538"><ele>520.210571</ele><time>2007-09-21T14:23:19Z</time></trkpt>
<trkpt lat="46.91166032" lon="7.21435871"><ele>521.171997</ele><time>2007-09-21T14:23:20Z</time></trkpt>
<trkpt lat="46.91115665" lon="7.21440012"><ele>522.133179</ele><time>2007-09-21T14:23:33Z</time></trkpt>
<trkpt lat="46.91059892" lon="7.21436307"><ele>522.133179</ele><time>2007-09-21T14:23:48Z</time></trkpt>
<trkpt lat="46.91015795" lon="7.21427305"><ele>524.055786</ele><time>2007-09-21T14:24:01Z</time></trkpt>
<trkpt lat="46.90962696" lon="7.21413089"><ele>525.017212</ele><time>2007-09-21T14:24:16Z</time></trkpt>
<trkpt lat="46.90915891" lon="7.21397532"><ele>525.017212</ele><time>2007-09-21T14:24:30Z</time></trkpt>
<trkpt lat="46.90911382" lon="7.21393618"><ele>525.978394</ele><time>2007-09-21T14:24:32Z</time></trkpt>
<trkpt lat="46.90886169" lon="7.21380592"><ele>526.939819</ele><time>2007-09-21T14:24:42Z</time></trkpt>
<trkpt lat="46.90886144" lon="7.21368782"><ele>525.017212</ele><time>2007-09-21T14:24:45Z</time></trkpt>
<trkpt lat="46.90887032" lon="7.21363527"><ele>525.017212</ele><time>2007-09-21T14:24:46Z</time></trkpt>
<trkpt lat="46.90887015" lon="7.21354340"><ele>524.055786</ele><time>2007-09-21T14:24:48Z</time></trkpt>
<trkpt lat="46.90891382" lon="7.21288693"><ele>522.133179</ele><time>2007-09-21T14:24:58Z</time></trkpt>
<trkpt lat="46.90891273" lon="7.21232249"><ele>523.094604</ele><time>2007-09-21T14:25:06Z</time></trkpt>
<trkpt lat="46.90874074" lon="7.21175881"><ele>523.094604</ele><time>2007-09-21T14:25:14Z</time></trkpt>
<trkpt lat="46.90855114" lon="7.21140526"><ele>524.055786</ele><time>2007-09-21T14:25:23Z</time></trkpt>
<trkpt lat="46.90853303" lon="7.21137903"><ele>524.055786</ele><time>2007-09-21T14:26:35Z</time></trkpt>
<trkpt lat="46.90841552" lon="7.21105138"><ele>525.017212</ele><time>2007-09-21T14:26:46Z</time></trkpt>
<trkpt lat="46.90835224" lon="7.21090729"><ele>525.978394</ele><time>2007-09-21T14:26:51Z</time></trkpt>
<trkpt lat="46.90814462" lon="7.21054067"><ele>527.901001</ele><time>2007-09-21T14:27:04Z</time></trkpt>
<trkpt lat="46.90808142" lon="7.21040966"><ele>527.901001</ele><time>2007-09-21T14:27:09Z</time></trkpt>
<trkpt lat="46.90792794" lon="7.21014781"><ele>530.785156</ele><time>2007-09-21T14:27:20Z</time></trkpt>
<trkpt lat="46.90784681" lon="7.21005628"><ele>530.785156</ele><time>2007-09-21T14:27:24Z</time></trkpt>
<trkpt lat="46.90783775" lon="7.21001697"><ele>533.188354</ele><time>2007-09-21T14:27:26Z</time></trkpt>
<trkpt lat="46.90782845" lon="7.20987255"><ele>534.149658</ele><time>2007-09-21T14:27:33Z</time></trkpt>
<trkpt lat="46.90782803" lon="7.20967574"><ele>536.072388</ele><time>2007-09-21T14:27:40Z</time></trkpt>
<trkpt lat="46.90780993" lon="7.20962327"><ele>536.072388</ele><time>2007-09-21T14:27:44Z</time></trkpt>
<trkpt lat="46.90774681" lon="7.20951858"><ele>537.033691</ele><time>2007-09-21T14:27:50Z</time></trkpt>
<trkpt lat="46.90754816" lon="7.20913871"><ele>538.956299</ele><time>2007-09-21T14:28:06Z</time></trkpt>
<trkpt lat="46.90741262" lon="7.20886370"><ele>539.917603</ele><time>2007-09-21T14:28:18Z</time></trkpt>
<trkpt lat="46.90723225" lon="7.20864133"><ele>540.878906</ele><time>2007-09-21T14:28:32Z</time></trkpt>
<trkpt lat="46.90716913" lon="7.20856288"><ele>540.878906</ele><time>2007-09-21T14:28:36Z</time></trkpt>
<trkpt lat="46.90699814" lon="7.20849800"><ele>542.801514</ele><time>2007-09-21T14:28:48Z</time></trkpt>
<trkpt lat="46.90693511" lon="7.20845886"><ele>542.801514</ele><time>2007-09-21T14:28:51Z</time></trkpt>
<trkpt lat="46.90681810" lon="7.20841996"><ele>543.762817</ele><time>2007-09-21T14:28:56Z</time></trkpt>
<trkpt lat="46.90663814" lon="7.20843388"><ele>546.16626</ele><time>2007-09-21T14:29:05Z</time></trkpt>
<trkpt lat="46.90655725" lon="7.20844737"><ele>546.16626</ele><time>2007-09-21T14:29:10Z</time></trkpt>
<trkpt lat="46.90647611" lon="7.20836892"><ele>545.204834</ele><time>2007-09-21T14:29:14Z</time></trkpt>
<trkpt lat="46.90643094" lon="7.20827722"><ele>543.762817</ele><time>2007-09-21T14:29:17Z</time></trkpt>
<trkpt lat="46.90613338" lon="7.20792417"><ele>541.84021</ele><time>2007-09-21T14:29:25Z</time></trkpt>
<trkpt lat="46.90598896" lon="7.20767540"><ele>539.917603</ele><time>2007-09-21T14:29:29Z</time></trkpt>
<trkpt lat="46.90586247" lon="7.20737407"><ele>537.994995</ele><time>2007-09-21T14:29:34Z</time></trkpt>
<trkpt lat="46.90579928" lon="7.20725622"><ele>537.994995</ele><time>2007-09-21T14:29:36Z</time></trkpt>
<trkpt lat="46.90574504" lon="7.20712521"><ele>537.033691</ele><time>2007-09-21T14:29:38Z</time></trkpt>
<trkpt lat="46.90553751" lon="7.20682422"><ele>536.072388</ele><time>2007-09-21T14:29:43Z</time></trkpt>
<trkpt lat="46.90542041" lon="7.20673285"><ele>537.033691</ele><time>2007-09-21T14:29:46Z</time></trkpt>
<trkpt lat="46.90514113" lon="7.20652406"><ele>537.033691</ele><time>2007-09-21T14:29:53Z</time></trkpt>
<trkpt lat="46.90479906" lon="7.20643362"><ele>537.994995</ele><time>2007-09-21T14:30:02Z</time></trkpt>
<trkpt lat="46.90451047" lon="7.20604118"><ele>537.994995</ele><time>2007-09-21T14:30:10Z</time></trkpt>
<trkpt lat="46.90441115" lon="7.20588410"><ele>537.994995</ele><time>2007-09-21T14:30:13Z</time></trkpt>
<trkpt lat="46.90422172" lon="7.20562242"><ele>537.033691</ele><time>2007-09-21T14:30:18Z</time></trkpt>
<trkpt lat="46.90405928" lon="7.20536065"><ele>537.994995</ele><time>2007-09-21T14:30:23Z</time></trkpt>
<trkpt lat="46.90386088" lon="7.20509897"><ele>537.994995</ele><time>2007-09-21T14:30:30Z</time></trkpt>
<trkpt lat="46.90373464" lon="7.20496830"><ele>537.994995</ele><time>2007-09-21T14:30:34Z</time></trkpt>
<trkpt lat="46.90344614" lon="7.20465456"><ele>538.956299</ele><time>2007-09-21T14:30:45Z</time></trkpt>
<trkpt lat="46.90321161" lon="7.20431434"><ele>539.917603</ele><time>2007-09-21T14:30:55Z</time></trkpt>
<trkpt lat="46.90319359" lon="7.20428819"><ele>539.917603</ele><time>2007-09-21T14:30:56Z</time></trkpt>
<trkpt lat="46.90282454" lon="7.20419792"><ele>539.917603</ele><time>2007-09-21T14:31:07Z</time></trkpt>
<trkpt lat="46.90247376" lon="7.20419942"><ele>539.917603</ele><time>2007-09-21T14:31:18Z</time></trkpt>
<trkpt lat="46.90233026" lon="7.20441006"><ele>540.878906</ele><time>2007-09-21T14:31:26Z</time></trkpt>
<trkpt lat="46.90227720" lon="7.20484341"><ele>539.917603</ele><time>2007-09-21T14:31:39Z</time></trkpt>
<trkpt lat="46.90231400" lon="7.20525010"><ele>539.917603</ele><time>2007-09-21T14:31:48Z</time></trkpt>
<trkpt lat="46.90220637" lon="7.20539493"><ele>539.917603</ele><time>2007-09-21T14:31:51Z</time></trkpt>
<trkpt lat="46.90205374" lon="7.20553994"><ele>539.917603</ele><time>2007-09-21T14:31:55Z</time></trkpt>
<trkpt lat="46.90191912" lon="7.20571110"><ele>540.878906</ele><time>2007-09-21T14:32:01Z</time></trkpt>
<trkpt lat="46.90173062" lon="7.20590883"><ele>541.84021</ele><time>2007-09-21T14:32:08Z</time></trkpt>
<trkpt lat="46.90156038" lon="7.20622449"><ele>545.204834</ele><time>2007-09-21T14:32:17Z</time></trkpt>
<trkpt lat="46.90149768" lon="7.20635600"><ele>546.16626</ele><time>2007-09-21T14:32:25Z</time></trkpt>
<trkpt lat="46.90141655" lon="7.20626447"><ele>545.204834</ele><time>2007-09-21T14:32:29Z</time></trkpt>
<trkpt lat="46.90131730" lon="7.20612056"><ele>542.801514</ele><time>2007-09-21T14:32:33Z</time></trkpt>
<trkpt lat="46.90125410" lon="7.20602894"><ele>542.801514</ele><time>2007-09-21T14:32:35Z</time></trkpt>
<trkpt lat="46.90088429" lon="7.20554497"><ele>541.84021</ele><time>2007-09-21T14:32:45Z</time></trkpt>
<trkpt lat="46.90071314" lon="7.20538823"><ele>543.762817</ele><time>2007-09-21T14:32:50Z</time></trkpt>
<trkpt lat="46.90065019" lon="7.20542788"><ele>542.801514</ele><time>2007-09-21T14:32:54Z</time></trkpt>
<trkpt lat="46.90065044" lon="7.20555914"><ele>541.84021</ele><time>2007-09-21T14:32:57Z</time></trkpt>
<trkpt lat="46.90066871" lon="7.20567715"><ele>539.917603</ele><time>2007-09-21T14:32:59Z</time></trkpt>
<trkpt lat="46.90071439" lon="7.20601821"><ele>537.033691</ele><time>2007-09-21T14:33:03Z</time></trkpt>
<trkpt lat="46.90075069" lon="7.20617554"><ele>536.072388</ele><time>2007-09-21T14:33:05Z</time></trkpt>
<trkpt lat="46.90076946" lon="7.20655600"><ele>535.110962</ele><time>2007-09-21T14:33:09Z</time></trkpt>
<trkpt lat="46.90075211" lon="7.20689731"><ele>533.188354</ele><time>2007-09-21T14:33:13Z</time></trkpt>
<trkpt lat="46.90067173" lon="7.20716016"><ele>530.785156</ele><time>2007-09-21T14:33:16Z</time></trkpt>
<trkpt lat="46.90069981" lon="7.20769811"><ele>526.939819</ele><time>2007-09-21T14:33:23Z</time></trkpt>
<trkpt lat="46.90072705" lon="7.20784237"><ele>525.978394</ele><time>2007-09-21T14:33:25Z</time></trkpt>
<trkpt lat="46.90081757" lon="7.20813070"><ele>525.017212</ele><time>2007-09-21T14:33:29Z</time></trkpt>
<trkpt lat="46.90101648" lon="7.20860227"><ele>523.094604</ele><time>2007-09-21T14:33:37Z</time></trkpt>
<trkpt lat="46.90108001" lon="7.20889078"><ele>522.133179</ele><time>2007-09-21T14:33:41Z</time></trkpt>
<trkpt lat="46.90111698" lon="7.20937617"><ele>520.210571</ele><time>2007-09-21T14:33:50Z</time></trkpt>
<trkpt lat="46.90113508" lon="7.20945488"><ele>520.210571</ele><time>2007-09-21T14:33:51Z</time></trkpt>
<trkpt lat="46.90119862" lon="7.20973014"><ele>520.210571</ele><time>2007-09-21T14:33:54Z</time></trkpt>
<trkpt lat="46.90143364" lon="7.21029349"><ele>520.210571</ele><time>2007-09-21T14:34:05Z</time></trkpt>
<trkpt lat="46.90141604" lon="7.21051670"><ele>518.768555</ele><time>2007-09-21T14:34:10Z</time></trkpt>
<trkpt lat="46.90124589" lon="7.21088491"><ele>513.962036</ele><time>2007-09-21T14:34:20Z</time></trkpt>
<trkpt lat="46.90120105" lon="7.21096379"><ele>513.000732</ele><time>2007-09-21T14:34:22Z</time></trkpt>
<trkpt lat="46.90096795" lon="7.21134542"><ele>513.000732</ele><time>2007-09-21T14:34:29Z</time></trkpt>
<trkpt lat="46.90077064" lon="7.21164809"><ele>509.155396</ele><time>2007-09-21T14:34:37Z</time></trkpt>
<trkpt lat="46.90072588" lon="7.21175328"><ele>508.194092</ele><time>2007-09-21T14:34:39Z</time></trkpt>
<trkpt lat="46.90066377" lon="7.21217346"><ele>504.829468</ele><time>2007-09-21T14:34:46Z</time></trkpt>
<trkpt lat="46.90066393" lon="7.21225225"><ele>504.829468</ele><time>2007-09-21T14:34:47Z</time></trkpt>
<trkpt lat="46.90065513" lon="7.21238351"><ele>502.906738</ele><time>2007-09-21T14:34:49Z</time></trkpt>
<trkpt lat="46.90064633" lon="7.21244914"><ele>501.945557</ele><time>2007-09-21T14:34:50Z</time></trkpt>
<trkpt lat="46.90051264" lon="7.21310587"><ele>499.061523</ele><time>2007-09-21T14:35:01Z</time></trkpt>
<trkpt lat="46.90049479" lon="7.21317158"><ele>499.061523</ele><time>2007-09-21T14:35:02Z</time></trkpt>
<trkpt lat="46.90049504" lon="7.21330284"><ele>497.138916</ele><time>2007-09-21T14:35:04Z</time></trkpt>
<trkpt lat="46.90049546" lon="7.21351281"><ele>496.177734</ele><time>2007-09-21T14:35:12Z</time></trkpt>
<trkpt lat="46.90047744" lon="7.21348666"><ele>496.177734</ele><time>2007-09-21T14:35:13Z</time></trkpt>
<trkpt lat="46.90001769" lon="7.21298986"><ele>495.216187</ele><time>2007-09-21T14:35:25Z</time></trkpt>
<trkpt lat="46.89965702" lon="7.21254520"><ele>496.177734</ele><time>2007-09-21T14:35:34Z</time></trkpt>
<trkpt lat="46.89944898" lon="7.21198177"><ele>497.138916</ele><time>2007-09-21T14:35:43Z</time></trkpt>
<trkpt lat="46.89938569" lon="7.21181137"><ele>497.138916</ele><time>2007-09-21T14:35:46Z</time></trkpt>
<trkpt lat="46.89914212" lon="7.21144499"><ele>496.177734</ele><time>2007-09-21T14:35:53Z</time></trkpt>
<trkpt lat="46.89891606" lon="7.21084225"><ele>498.100342</ele><time>2007-09-21T14:36:03Z</time></trkpt>
<trkpt lat="46.89879863" lon="7.21063279"><ele>499.061523</ele><time>2007-09-21T14:36:07Z</time></trkpt>
<trkpt lat="46.89831147" lon="7.20991303"><ele>500.984131</ele><time>2007-09-21T14:36:25Z</time></trkpt>
<trkpt lat="46.89827543" lon="7.20988696"><ele>500.984131</ele><time>2007-09-21T14:36:26Z</time></trkpt>
<trkpt lat="46.89778894" lon="7.20950844"><ele>502.906738</ele><time>2007-09-21T14:36:41Z</time></trkpt>
<trkpt lat="46.89757294" lon="7.20947005"><ele>503.868164</ele><time>2007-09-21T14:36:48Z</time></trkpt>
<trkpt lat="46.89759943" lon="7.20919428"><ele>503.868164</ele><time>2007-09-21T14:36:56Z</time></trkpt>
<trkpt lat="46.89788575" lon="7.20843195"><ele>504.829468</ele><time>2007-09-21T14:37:13Z</time></trkpt>
<trkpt lat="46.89774125" lon="7.20817010"><ele>505.790894</ele><time>2007-09-21T14:37:21Z</time></trkpt>
<trkpt lat="46.89714672" lon="7.20775276"><ele>504.829468</ele><time>2007-09-21T14:37:37Z</time></trkpt>
<trkpt lat="46.89693055" lon="7.20759619"><ele>505.790894</ele><time>2007-09-21T14:37:43Z</time></trkpt>
<trkpt lat="46.89684950" lon="7.20754405"><ele>507.232788</ele><time>2007-09-21T14:37:45Z</time></trkpt>
<trkpt lat="46.89629101" lon="7.20715279"><ele>507.232788</ele><time>2007-09-21T14:38:01Z</time></trkpt>
<trkpt lat="46.89567846" lon="7.20674861"><ele>505.790894</ele><time>2007-09-21T14:38:17Z</time></trkpt>
<trkpt lat="46.89527311" lon="7.20646162"><ele>505.790894</ele><time>2007-09-21T14:38:27Z</time></trkpt>
<trkpt lat="46.89503951" lon="7.20659388"><ele>507.232788</ele><time>2007-09-21T14:38:33Z</time></trkpt>
<trkpt lat="46.89498578" lon="7.20669908"><ele>507.232788</ele><time>2007-09-21T14:38:35Z</time></trkpt>
<trkpt lat="46.89476986" lon="7.20670000"><ele>508.194092</ele><time>2007-09-21T14:38:41Z</time></trkpt>
<trkpt lat="46.89417517" lon="7.20621703"><ele>509.155396</ele><time>2007-09-21T14:38:56Z</time></trkpt>
<trkpt lat="46.89410250" lon="7.20584990"><ele>509.155396</ele><time>2007-09-21T14:39:03Z</time></trkpt>
<trkpt lat="46.89436125" lon="7.20481214"><ele>510.116699</ele><time>2007-09-21T14:39:19Z</time></trkpt>
<trkpt lat="46.89442369" lon="7.20457569"><ele>512.039429</ele><time>2007-09-21T14:39:23Z</time></trkpt>
<trkpt lat="46.89453911" lon="7.20382718"><ele>513.000732</ele><time>2007-09-21T14:39:36Z</time></trkpt>
<trkpt lat="46.89442981" lon="7.20315848"><ele>516.845947</ele><time>2007-09-21T14:39:48Z</time></trkpt>
<trkpt lat="46.89438312" lon="7.20234510"><ele>520.210571</ele><time>2007-09-21T14:40:04Z</time></trkpt>
<trkpt lat="46.89442746" lon="7.20201686"><ele>524.055786</ele><time>2007-09-21T14:40:13Z</time></trkpt>
<trkpt lat="46.89441816" lon="7.20188568"><ele>525.017212</ele><time>2007-09-21T14:40:17Z</time></trkpt>
<trkpt lat="46.89426469" lon="7.20159760"><ele>528.862549</ele><time>2007-09-21T14:40:28Z</time></trkpt>
<trkpt lat="46.89408397" lon="7.20121790"><ele>532.227051</ele><time>2007-09-21T14:40:42Z</time></trkpt>
<trkpt lat="46.89399345" lon="7.20092956"><ele>535.110962</ele><time>2007-09-21T14:40:54Z</time></trkpt>
<trkpt lat="46.89390276" lon="7.20057568"><ele>537.994995</ele><time>2007-09-21T14:41:08Z</time></trkpt>
<trkpt lat="46.89384827" lon="7.20033973"><ele>541.84021</ele><time>2007-09-21T14:41:17Z</time></trkpt>
<trkpt lat="46.89383017" lon="7.20030050"><ele>541.84021</ele><time>2007-09-21T14:41:19Z</time></trkpt>
<trkpt lat="46.89378491" lon="7.20013009"><ele>545.204834</ele><time>2007-09-21T14:41:27Z</time></trkpt>
<trkpt lat="46.89375716" lon="7.19978903"><ele>549.050049</ele><time>2007-09-21T14:41:40Z</time></trkpt>
<trkpt lat="46.89376546" lon="7.19943465"><ele>550.011475</ele><time>2007-09-21T14:41:54Z</time></trkpt>
<trkpt lat="46.89377384" lon="7.19917221"><ele>553.856689</ele><time>2007-09-21T14:42:07Z</time></trkpt>
<trkpt lat="46.89383604" lon="7.19877826"><ele>555.779297</ele><time>2007-09-21T14:42:21Z</time></trkpt>
<trkpt lat="46.89388901" lon="7.19829253"><ele>557.221436</ele><time>2007-09-21T14:42:37Z</time></trkpt>
<trkpt lat="46.89396000" lon="7.19784603"><ele>559.144043</ele><time>2007-09-21T14:42:52Z</time></trkpt>
<trkpt lat="46.89406679" lon="7.19728134"><ele>562.028076</ele><time>2007-09-21T14:43:10Z</time></trkpt>
<trkpt lat="46.89417358" lon="7.19676903"><ele>563.950439</ele><time>2007-09-21T14:43:27Z</time></trkpt>
<trkpt lat="46.89423577" lon="7.19640132"><ele>567.795654</ele><time>2007-09-21T14:43:40Z</time></trkpt>
<trkpt lat="46.89430702" lon="7.19605984"><ele>570.198975</ele><time>2007-09-21T14:43:54Z</time></trkpt>
<trkpt lat="46.89434281" lon="7.19596781"><ele>572.121826</ele><time>2007-09-21T14:43:58Z</time></trkpt>
<trkpt lat="46.89436049" lon="7.19582339"><ele>574.044434</ele><time>2007-09-21T14:44:04Z</time></trkpt>
<trkpt lat="46.89437776" lon="7.19548216"><ele>575.005859</ele><time>2007-09-21T14:44:17Z</time></trkpt>
<trkpt lat="46.89435957" lon="7.19539038"><ele>575.967041</ele><time>2007-09-21T14:44:21Z</time></trkpt>
<trkpt lat="46.89436837" lon="7.19528535"><ele>576.928467</ele><time>2007-09-21T14:44:25Z</time></trkpt>
<trkpt lat="46.89434113" lon="7.19518050"><ele>577.889648</ele><time>2007-09-21T14:44:30Z</time></trkpt>
<trkpt lat="46.89432294" lon="7.19508871"><ele>579.812256</ele><time>2007-09-21T14:44:33Z</time></trkpt>
<trkpt lat="46.89416930" lon="7.19474824"><ele>582.215576</ele><time>2007-09-21T14:44:48Z</time></trkpt>
<trkpt lat="46.89416930" lon="7.19472201"><ele>582.215576</ele><time>2007-09-21T14:44:49Z</time></trkpt>
<trkpt lat="46.89408791" lon="7.19453869"><ele>583.176758</ele><time>2007-09-21T14:44:56Z</time></trkpt>
<trkpt lat="46.89399747" lon="7.19431599"><ele>585.099609</ele><time>2007-09-21T14:45:05Z</time></trkpt>
<trkpt lat="46.89387987" lon="7.19400158"><ele>587.021973</ele><time>2007-09-21T14:45:18Z</time></trkpt>
<trkpt lat="46.89380712" lon="7.19362138"><ele>588.945068</ele><time>2007-09-21T14:45:30Z</time></trkpt>
<trkpt lat="46.89381575" lon="7.19346388"><ele>589.90625</ele><time>2007-09-21T14:45:36Z</time></trkpt>
<trkpt lat="46.89382388" lon="7.19307018"><ele>591.828857</ele><time>2007-09-21T14:45:50Z</time></trkpt>
<trkpt lat="46.89382296" lon="7.19263718"><ele>592.790283</ele><time>2007-09-21T14:46:03Z</time></trkpt>
<trkpt lat="46.89383117" lon="7.19226971"><ele>592.790283</ele><time>2007-09-21T14:46:11Z</time></trkpt>
<trkpt lat="46.89374970" lon="7.19200761"><ele>594.232178</ele><time>2007-09-21T14:46:17Z</time></trkpt>
<trkpt lat="46.89346991" lon="7.19160209"><ele>594.232178</ele><time>2007-09-21T14:46:28Z</time></trkpt>
<trkpt lat="46.89324411" lon="7.19115702"><ele>594.232178</ele><time>2007-09-21T14:46:37Z</time></trkpt>
<trkpt lat="46.89307295" lon="7.19106599"><ele>595.193359</ele><time>2007-09-21T14:46:40Z</time></trkpt>
<trkpt lat="46.89289240" lon="7.19073876"><ele>594.232178</ele><time>2007-09-21T14:46:47Z</time></trkpt>
<trkpt lat="46.89274815" lon="7.19059509"><ele>594.232178</ele><time>2007-09-21T14:46:51Z</time></trkpt>
<trkpt lat="46.89264874" lon="7.19038554"><ele>592.790283</ele><time>2007-09-21T14:46:54Z</time></trkpt>
<trkpt lat="46.89249476" lon="7.18990074"><ele>594.232178</ele><time>2007-09-21T14:47:04Z</time></trkpt>
<trkpt lat="46.89221523" lon="7.18957401"><ele>594.232178</ele><time>2007-09-21T14:47:13Z</time></trkpt>
<trkpt lat="46.89201641" lon="7.18918132"><ele>591.828857</ele><time>2007-09-21T14:47:21Z</time></trkpt>
<trkpt lat="46.89176386" lon="7.18885442"><ele>591.828857</ele><time>2007-09-21T14:47:28Z</time></trkpt>
<trkpt lat="46.89144820" lon="7.18848847"><ele>590.867432</ele><time>2007-09-21T14:47:36Z</time></trkpt>
<trkpt lat="46.89111468" lon="7.18816199"><ele>591.828857</ele><time>2007-09-21T14:47:42Z</time></trkpt>
<trkpt lat="46.89042938" lon="7.18741726"><ele>590.867432</ele><time>2007-09-21T14:47:57Z</time></trkpt>
<trkpt lat="46.89039334" lon="7.18737803"><ele>590.867432</ele><time>2007-09-21T14:47:58Z</time></trkpt>
<trkpt lat="46.89006904" lon="7.18715650"><ele>589.90625</ele><time>2007-09-21T14:48:06Z</time></trkpt>
<trkpt lat="46.88982538" lon="7.18681653"><ele>587.983398</ele><time>2007-09-21T14:48:17Z</time></trkpt>
<trkpt lat="46.88979831" lon="7.18676414"><ele>587.983398</ele><time>2007-09-21T14:48:18Z</time></trkpt>
<trkpt lat="46.88975304" lon="7.18664629"><ele>586.060791</ele><time>2007-09-21T14:48:20Z</time></trkpt>
<trkpt lat="46.88947317" lon="7.18617523"><ele>584.138184</ele><time>2007-09-21T14:48:27Z</time></trkpt>
<trkpt lat="46.88913932" lon="7.18573065"><ele>580.773682</ele><time>2007-09-21T14:48:34Z</time></trkpt>
<trkpt lat="46.88898593" lon="7.18548213"><ele>579.812256</ele><time>2007-09-21T14:48:37Z</time></trkpt>
<trkpt lat="46.88885048" lon="7.18525968"><ele>578.851074</ele><time>2007-09-21T14:48:40Z</time></trkpt>
<trkpt lat="46.88849852" lon="7.18473648"><ele>577.889648</ele><time>2007-09-21T14:48:49Z</time></trkpt>
<trkpt lat="46.88858746" lon="7.18430313"><ele>576.928467</ele><time>2007-09-21T14:48:56Z</time></trkpt>
<trkpt lat="46.88871318" lon="7.18419752"><ele>575.967041</ele><time>2007-09-21T14:48:59Z</time></trkpt>
<trkpt lat="46.88939597" lon="7.18381380"><ele>574.044434</ele><time>2007-09-21T14:49:12Z</time></trkpt>
<trkpt lat="46.88961122" lon="7.18352412"><ele>571.1604</ele><time>2007-09-21T14:49:17Z</time></trkpt>
<trkpt lat="46.88988028" lon="7.18318172"><ele>569.237793</ele><time>2007-09-21T14:49:24Z</time></trkpt>
<trkpt lat="46.88998824" lon="7.18315490"><ele>567.795654</ele><time>2007-09-21T14:49:26Z</time></trkpt>
<trkpt lat="46.89022226" lon="7.18323251"><ele>565.873291</ele><time>2007-09-21T14:49:30Z</time></trkpt>
<trkpt lat="46.89067204" lon="7.18323042"><ele>564.911865</ele><time>2007-09-21T14:49:37Z</time></trkpt>
<trkpt lat="46.89088770" lon="7.18313755"><ele>563.950439</ele><time>2007-09-21T14:49:40Z</time></trkpt>
<trkpt lat="46.89105836" lon="7.18303177"><ele>564.911865</ele><time>2007-09-21T14:49:44Z</time></trkpt>
<trkpt lat="46.89139020" lon="7.18258409"><ele>563.950439</ele><time>2007-09-21T14:49:50Z</time></trkpt>
<trkpt lat="46.89145239" lon="7.18225569"><ele>562.989258</ele><time>2007-09-21T14:49:54Z</time></trkpt>
<trkpt lat="46.89147905" lon="7.18208503"><ele>562.028076</ele><time>2007-09-21T14:49:56Z</time></trkpt>
<trkpt lat="46.89152364" lon="7.18191421"><ele>561.06665</ele><time>2007-09-21T14:49:58Z</time></trkpt>
<trkpt lat="46.89153244" lon="7.18184858"><ele>559.144043</ele><time>2007-09-21T14:49:59Z</time></trkpt>
<trkpt lat="46.89159472" lon="7.18150710"><ele>557.221436</ele><time>2007-09-21T14:50:03Z</time></trkpt>
<trkpt lat="46.89158533" lon="7.18136285"><ele>557.221436</ele><time>2007-09-21T14:50:05Z</time></trkpt>
<trkpt lat="46.89175615" lon="7.18132261"><ele>553.856689</ele><time>2007-09-21T14:50:10Z</time></trkpt>
<trkpt lat="46.89187325" lon="7.18137458"><ele>552.895264</ele><time>2007-09-21T14:50:12Z</time></trkpt>
<trkpt lat="46.89206226" lon="7.18143929"><ele>551.934082</ele><time>2007-09-21T14:50:18Z</time></trkpt>
<trkpt lat="46.89222436" lon="7.18153032"><ele>550.011475</ele><time>2007-09-21T14:50:22Z</time></trkpt>
<trkpt lat="46.89233241" lon="7.18156921"><ele>549.050049</ele><time>2007-09-21T14:50:24Z</time></trkpt>
<trkpt lat="46.89318728" lon="7.18170944"><ele>548.088867</ele><time>2007-09-21T14:50:39Z</time></trkpt>
<trkpt lat="46.89399705" lon="7.18179745"><ele>545.204834</ele><time>2007-09-21T14:50:55Z</time></trkpt>
<trkpt lat="46.89422202" lon="7.18180952"><ele>542.801514</ele><time>2007-09-21T14:50:59Z</time></trkpt>
<trkpt lat="46.89470750" lon="7.18170214"><ele>542.801514</ele><time>2007-09-21T14:51:08Z</time></trkpt>
<trkpt lat="46.89511226" lon="7.18170022"><ele>540.878906</ele><time>2007-09-21T14:51:15Z</time></trkpt>
<trkpt lat="46.89579623" lon="7.18184137"><ele>537.994995</ele><time>2007-09-21T14:51:25Z</time></trkpt>
<trkpt lat="46.89651674" lon="7.18223155"><ele>537.033691</ele><time>2007-09-21T14:51:36Z</time></trkpt>
<trkpt lat="46.89662444" lon="7.18211294"><ele>534.149658</ele><time>2007-09-21T14:51:39Z</time></trkpt>
<trkpt lat="46.89671380" lon="7.18185009"><ele>533.188354</ele><time>2007-09-21T14:51:42Z</time></trkpt>
<trkpt lat="46.89683014" lon="7.18158706"><ele>533.188354</ele><time>2007-09-21T14:51:49Z</time></trkpt>
<trkpt lat="46.89692049" lon="7.18175721"><ele>533.188354</ele><time>2007-09-21T14:51:52Z</time></trkpt>
<trkpt lat="46.89721855" lon="7.18230698"><ele>533.188354</ele><time>2007-09-21T14:52:00Z</time></trkpt>
<trkpt lat="46.89733598" lon="7.18251636"><ele>533.188354</ele><time>2007-09-21T14:52:03Z</time></trkpt>
<trkpt lat="46.89740824" lon="7.18264729"><ele>533.188354</ele><time>2007-09-21T14:52:05Z</time></trkpt>
<trkpt lat="46.89776849" lon="7.18285549"><ele>533.188354</ele><time>2007-09-21T14:52:12Z</time></trkpt>
<trkpt lat="46.89809195" lon="7.18269649"><ele>532.227051</ele><time>2007-09-21T14:52:20Z</time></trkpt>
<trkpt lat="46.89826218" lon="7.18236758"><ele>526.939819</ele><time>2007-09-21T14:52:25Z</time></trkpt>
<trkpt lat="46.89834273" lon="7.18220975"><ele>526.939819</ele><time>2007-09-21T14:52:27Z</time></trkpt>
<trkpt lat="46.89867407" lon="7.18153886"><ele>525.017212</ele><time>2007-09-21T14:52:38Z</time></trkpt>
<trkpt lat="46.89869192" lon="7.18147315"><ele>525.017212</ele><time>2007-09-21T14:52:40Z</time></trkpt>
<trkpt lat="46.89877264" lon="7.18136779"><ele>525.017212</ele><time>2007-09-21T14:52:45Z</time></trkpt>
<trkpt lat="46.89875437" lon="7.18123670"><ele>525.017212</ele><time>2007-09-21T14:52:49Z</time></trkpt>
<trkpt lat="46.89833846" lon="7.18029382"><ele>525.017212</ele><time>2007-09-21T14:53:05Z</time></trkpt>
<trkpt lat="46.89794979" lon="7.17946887"><ele>525.017212</ele><time>2007-09-21T14:53:17Z</time></trkpt>
<trkpt lat="46.89784971" lon="7.17897065"><ele>525.017212</ele><time>2007-09-21T14:53:23Z</time></trkpt>
<trkpt lat="46.89795633" lon="7.17839272"><ele>525.017212</ele><time>2007-09-21T14:53:30Z</time></trkpt>
<trkpt lat="46.89823410" lon="7.17790581"><ele>525.017212</ele><time>2007-09-21T14:53:37Z</time></trkpt>
<trkpt lat="46.89880751" lon="7.17690568"><ele>525.978394</ele><time>2007-09-21T14:53:53Z</time></trkpt>
<trkpt lat="46.89920188" lon="7.17627386"><ele>525.978394</ele><time>2007-09-21T14:54:03Z</time></trkpt>
<trkpt lat="46.89973220" lon="7.17611376"><ele>527.901001</ele><time>2007-09-21T14:54:14Z</time></trkpt>
<trkpt lat="46.90053234" lon="7.17592617"><ele>530.785156</ele><time>2007-09-21T14:54:30Z</time></trkpt>
<trkpt lat="46.90110776" lon="7.17580522"><ele>533.188354</ele><time>2007-09-21T14:54:42Z</time></trkpt>
<trkpt lat="46.90125209" lon="7.17596197"><ele>534.149658</ele><time>2007-09-21T14:54:47Z</time></trkpt>
<trkpt lat="46.90126165" lon="7.17622440"><ele>535.110962</ele><time>2007-09-21T14:54:51Z</time></trkpt>
<trkpt lat="46.90148972" lon="7.17762762"><ele>536.072388</ele><time>2007-09-21T14:55:11Z</time></trkpt>
<trkpt lat="46.90168041" lon="7.17841409"><ele>537.033691</ele><time>2007-09-21T14:55:22Z</time></trkpt>
<trkpt lat="46.90184310" lon="7.17872833"><ele>536.072388</ele><time>2007-09-21T14:55:27Z</time></trkpt>
<trkpt lat="46.90212264" lon="7.17905506"><ele>536.072388</ele><time>2007-09-21T14:55:33Z</time></trkpt>
<trkpt lat="46.90277316" lon="7.18031184"><ele>537.033691</ele><time>2007-09-21T14:55:51Z</time></trkpt>
<trkpt lat="46.90342368" lon="7.18155554"><ele>537.994995</ele><time>2007-09-21T14:56:09Z</time></trkpt>
<trkpt lat="46.90411929" lon="7.18290411"><ele>537.033691</ele><time>2007-09-21T14:56:28Z</time></trkpt>
<trkpt lat="46.90420051" lon="7.18303495"><ele>537.033691</ele><time>2007-09-21T14:56:30Z</time></trkpt>
<trkpt lat="46.90471457" lon="7.18360995"><ele>537.033691</ele><time>2007-09-21T14:56:40Z</time></trkpt>
<trkpt lat="46.90520282" lon="7.18472332"><ele>537.033691</ele><time>2007-09-21T14:56:54Z</time></trkpt>
<trkpt lat="46.90556592" lon="7.18623097"><ele>537.033691</ele><time>2007-09-21T14:57:11Z</time></trkpt>
<trkpt lat="46.90591042" lon="7.18743687"><ele>537.033691</ele><time>2007-09-21T14:57:25Z</time></trkpt>
<trkpt lat="46.90611108" lon="7.18869592"><ele>534.149658</ele><time>2007-09-21T14:57:37Z</time></trkpt>
<trkpt lat="46.90639179" lon="7.18957401"><ele>530.785156</ele><time>2007-09-21T14:57:46Z</time></trkpt>
<trkpt lat="46.90660855" lon="7.18995363"><ele>526.939819</ele><time>2007-09-21T14:57:51Z</time></trkpt>
<trkpt lat="46.90665364" lon="7.19003216"><ele>526.939819</ele><time>2007-09-21T14:57:52Z</time></trkpt>
<trkpt lat="46.90675314" lon="7.19028111"><ele>525.017212</ele><time>2007-09-21T14:57:55Z</time></trkpt>
<trkpt lat="46.90680812" lon="7.19074027"><ele>522.133179</ele><time>2007-09-21T14:57:59Z</time></trkpt>
<trkpt lat="46.90685389" lon="7.19108124"><ele>520.210571</ele><time>2007-09-21T14:58:02Z</time></trkpt>
<trkpt lat="46.90696252" lon="7.19139582"><ele>518.768555</ele><time>2007-09-21T14:58:05Z</time></trkpt>
<trkpt lat="46.90706176" lon="7.19156597"><ele>517.807251</ele><time>2007-09-21T14:58:07Z</time></trkpt>
<trkpt lat="46.90735077" lon="7.19207651"><ele>517.807251</ele><time>2007-09-21T14:58:14Z</time></trkpt>
<trkpt lat="46.90797396" lon="7.19324185"><ele>517.807251</ele><time>2007-09-21T14:58:30Z</time></trkpt>
<trkpt lat="46.90824528" lon="7.19396252"><ele>522.133179</ele><time>2007-09-21T14:58:40Z</time></trkpt>
<trkpt lat="46.90829960" lon="7.19409353"><ele>523.094604</ele><time>2007-09-21T14:58:42Z</time></trkpt>
<trkpt lat="46.90866857" lon="7.19419688"><ele>524.055786</ele><time>2007-09-21T14:58:51Z</time></trkpt>
<trkpt lat="46.90916243" lon="7.19378768"><ele>526.939819</ele><time>2007-09-21T14:59:05Z</time></trkpt>
<trkpt lat="46.90935999" lon="7.19360302"><ele>529.82373</ele><time>2007-09-21T14:59:11Z</time></trkpt>
<trkpt lat="46.90944004" lon="7.19316951"><ele>533.188354</ele><time>2007-09-21T14:59:19Z</time></trkpt>
<trkpt lat="46.90944892" lon="7.19313012"><ele>533.188354</ele><time>2007-09-21T14:59:20Z</time></trkpt>
<trkpt lat="46.90941137" lon="7.19242151"><ele>536.072388</ele><time>2007-09-21T14:59:35Z</time></trkpt>
<trkpt lat="46.90930207" lon="7.19179194"><ele>537.994995</ele><time>2007-09-21T14:59:50Z</time></trkpt>
<trkpt lat="46.90922890" lon="7.19120161"><ele>538.956299</ele><time>2007-09-21T15:00:05Z</time></trkpt>
<trkpt lat="46.90925446" lon="7.19057146"><ele>541.84021</ele><time>2007-09-21T15:00:21Z</time></trkpt>
<trkpt lat="46.90933443" lon="7.19008539"><ele>542.801514</ele><time>2007-09-21T15:00:34Z</time></trkpt>
<trkpt lat="46.90943224" lon="7.18957309"><ele>546.16626</ele><time>2007-09-21T15:00:50Z</time></trkpt>
<trkpt lat="46.90952092" lon="7.18898199"><ele>547.127441</ele><time>2007-09-21T15:01:07Z</time></trkpt>
<trkpt lat="46.90952025" lon="7.18866692"><ele>550.011475</ele><time>2007-09-21T15:01:16Z</time></trkpt>
<trkpt lat="46.90957314" lon="7.18819418"><ele>551.934082</ele><time>2007-09-21T15:01:32Z</time></trkpt>
<trkpt lat="46.90959971" lon="7.18798405"><ele>553.856689</ele><time>2007-09-21T15:01:40Z</time></trkpt>
<trkpt lat="46.90955428" lon="7.18777425"><ele>555.779297</ele><time>2007-09-21T15:01:48Z</time></trkpt>
<trkpt lat="46.90951807" lon="7.18769562"><ele>557.221436</ele><time>2007-09-21T15:01:52Z</time></trkpt>
<trkpt lat="46.90942747" lon="7.18739413"><ele>558.182861</ele><time>2007-09-21T15:02:05Z</time></trkpt>
<trkpt lat="46.90943576" lon="7.18706598"><ele>560.105225</ele><time>2007-09-21T15:02:19Z</time></trkpt>
<trkpt lat="46.90948924" lon="7.18684260"><ele>563.950439</ele><time>2007-09-21T15:02:30Z</time></trkpt>
<trkpt lat="46.90949821" lon="7.18681628"><ele>562.989258</ele><time>2007-09-21T15:02:31Z</time></trkpt>
<trkpt lat="46.90956082" lon="7.18667161"><ele>565.873291</ele><time>2007-09-21T15:02:39Z</time></trkpt>
<trkpt lat="46.90956979" lon="7.18665845"><ele>566.834473</ele><time>2007-09-21T15:02:40Z</time></trkpt>
<trkpt lat="46.90960550" lon="7.18654018"><ele>566.834473</ele><time>2007-09-21T15:02:45Z</time></trkpt>
<trkpt lat="46.90971287" lon="7.18627715"><ele>569.237793</ele><time>2007-09-21T15:02:58Z</time></trkpt>
<trkpt lat="46.90972159" lon="7.18614581"><ele>570.198975</ele><time>2007-09-21T15:03:03Z</time></trkpt>
<trkpt lat="46.90970315" lon="7.18594900"><ele>571.1604</ele><time>2007-09-21T15:03:10Z</time></trkpt>
<trkpt lat="46.90968471" lon="7.18575220"><ele>572.121826</ele><time>2007-09-21T15:03:18Z</time></trkpt>
<trkpt lat="46.90964799" lon="7.18541114"><ele>574.044434</ele><time>2007-09-21T15:03:30Z</time></trkpt>
<trkpt lat="46.90969200" lon="7.18497771"><ele>575.005859</ele><time>2007-09-21T15:03:42Z</time></trkpt>
<trkpt lat="46.90964607" lon="7.18455794"><ele>575.005859</ele><time>2007-09-21T15:03:52Z</time></trkpt>
<trkpt lat="46.90973475" lon="7.18395369"><ele>575.967041</ele><time>2007-09-21T15:04:05Z</time></trkpt>
<trkpt lat="46.90986852" lon="7.18345430"><ele>575.005859</ele><time>2007-09-21T15:04:15Z</time></trkpt>
<trkpt lat="46.91006466" lon="7.18267889"><ele>574.044434</ele><time>2007-09-21T15:04:27Z</time></trkpt>
<trkpt lat="46.91015409" lon="7.18244218"><ele>574.044434</ele><time>2007-09-21T15:04:31Z</time></trkpt>
<trkpt lat="46.91023448" lon="7.18216617"><ele>572.121826</ele><time>2007-09-21T15:04:35Z</time></trkpt>
<trkpt lat="46.91028787" lon="7.18192963"><ele>571.1604</ele><time>2007-09-21T15:04:37Z</time></trkpt>
<trkpt lat="46.91033229" lon="7.18168002"><ele>569.237793</ele><time>2007-09-21T15:04:39Z</time></trkpt>
<trkpt lat="46.91036783" lon="7.18146988"><ele>567.795654</ele><time>2007-09-21T15:04:41Z</time></trkpt>
<trkpt lat="46.91040329" lon="7.18124650"><ele>566.834473</ele><time>2007-09-21T15:04:43Z</time></trkpt>
<trkpt lat="46.91048375" lon="7.18102304"><ele>566.834473</ele><time>2007-09-21T15:04:45Z</time></trkpt>
<trkpt lat="46.91064418" lon="7.18036590"><ele>566.834473</ele><time>2007-09-21T15:04:51Z</time></trkpt>
<trkpt lat="46.91087628" lon="7.17957725"><ele>570.198975</ele><time>2007-09-21T15:05:01Z</time></trkpt>
<trkpt lat="46.91094778" lon="7.17935370"><ele>569.237793</ele><time>2007-09-21T15:05:05Z</time></trkpt>
<trkpt lat="46.91111818" lon="7.17915606"><ele>567.795654</ele><time>2007-09-21T15:05:10Z</time></trkpt>
<trkpt lat="46.91127090" lon="7.17903712"><ele>567.795654</ele><time>2007-09-21T15:05:15Z</time></trkpt>
<trkpt lat="46.91162160" lon="7.17899605"><ele>570.198975</ele><time>2007-09-21T15:05:23Z</time></trkpt>
<trkpt lat="46.91259281" lon="7.17887325"><ele>569.237793</ele><time>2007-09-21T15:05:37Z</time></trkpt>
<trkpt lat="46.91338406" lon="7.17873814"><ele>565.873291</ele><time>2007-09-21T15:05:48Z</time></trkpt>
<trkpt lat="46.91458032" lon="7.17869296"><ele>564.911865</ele><time>2007-09-21T15:06:04Z</time></trkpt>
<trkpt lat="46.91482332" lon="7.17871810"><ele>566.834473</ele><time>2007-09-21T15:06:08Z</time></trkpt>
<trkpt lat="46.91491317" lon="7.17869136"><ele>567.795654</ele><time>2007-09-21T15:06:10Z</time></trkpt>
<trkpt lat="46.91518273" lon="7.17854569"><ele>570.198975</ele><time>2007-09-21T15:06:18Z</time></trkpt>
<trkpt lat="46.91552362" lon="7.17816330"><ele>574.044434</ele><time>2007-09-21T15:06:32Z</time></trkpt>
<trkpt lat="46.91590014" lon="7.17758386"><ele>575.967041</ele><time>2007-09-21T15:06:48Z</time></trkpt>
<trkpt lat="46.91591782" lon="7.17743944"><ele>575.005859</ele><time>2007-09-21T15:06:51Z</time></trkpt>
<trkpt lat="46.91590852" lon="7.17730818"><ele>575.005859</ele><time>2007-09-21T15:06:54Z</time></trkpt>
<trkpt lat="46.91586284" lon="7.17701959"><ele>575.005859</ele><time>2007-09-21T15:07:00Z</time></trkpt>
<trkpt lat="46.91585337" lon="7.17680963"><ele>574.044434</ele><time>2007-09-21T15:07:07Z</time></trkpt>
<trkpt lat="46.91582588" lon="7.17657343"><ele>575.005859</ele><time>2007-09-21T15:07:13Z</time></trkpt>
<trkpt lat="46.91581632" lon="7.17632406"><ele>578.851074</ele><time>2007-09-21T15:07:21Z</time></trkpt>
<trkpt lat="46.91572538" lon="7.17589131"><ele>580.773682</ele><time>2007-09-21T15:07:32Z</time></trkpt>
<trkpt lat="46.91559822" lon="7.17537993"><ele>582.215576</ele><time>2007-09-21T15:07:44Z</time></trkpt>
<trkpt lat="46.91547124" lon="7.17492110"><ele>584.138184</ele><time>2007-09-21T15:07:55Z</time></trkpt>
<trkpt lat="46.91540770" lon="7.17464576"><ele>585.099609</ele><time>2007-09-21T15:08:02Z</time></trkpt>
<trkpt lat="46.91532606" lon="7.17437049"><ele>586.060791</ele><time>2007-09-21T15:08:07Z</time></trkpt>
<trkpt lat="46.91528985" lon="7.17425248"><ele>587.021973</ele><time>2007-09-21T15:08:09Z</time></trkpt>
<trkpt lat="46.91517158" lon="7.17368863"><ele>587.983398</ele><time>2007-09-21T15:08:20Z</time></trkpt>
<trkpt lat="46.91508056" lon="7.17321647"><ele>587.021973</ele><time>2007-09-21T15:08:29Z</time></trkpt>
<trkpt lat="46.91497159" lon="7.17279696"><ele>587.983398</ele><time>2007-09-21T15:08:36Z</time></trkpt>
<trkpt lat="46.91491694" lon="7.17248213"><ele>587.983398</ele><time>2007-09-21T15:08:41Z</time></trkpt>
<trkpt lat="46.91483522" lon="7.17218064"><ele>587.983398</ele><time>2007-09-21T15:08:46Z</time></trkpt>
<trkpt lat="46.91477177" lon="7.17197092"><ele>587.983398</ele><time>2007-09-21T15:08:49Z</time></trkpt>
<trkpt lat="46.91469926" lon="7.17173497"><ele>587.983398</ele><time>2007-09-21T15:08:53Z</time></trkpt>
<trkpt lat="46.91458116" lon="7.17121052"><ele>588.945068</ele><time>2007-09-21T15:09:02Z</time></trkpt>
<trkpt lat="46.91441780" lon="7.17060744"><ele>589.90625</ele><time>2007-09-21T15:09:12Z</time></trkpt>
<trkpt lat="46.91418210" lon="7.16983412"><ele>591.828857</ele><time>2007-09-21T15:09:25Z</time></trkpt>
<trkpt lat="46.91401882" lon="7.16925737"><ele>590.867432</ele><time>2007-09-21T15:09:35Z</time></trkpt>
<trkpt lat="46.91382780" lon="7.16835254"><ele>590.867432</ele><time>2007-09-21T15:09:46Z</time></trkpt>
<trkpt lat="46.91369168" lon="7.16785440"><ele>590.867432</ele><time>2007-09-21T15:09:53Z</time></trkpt>
<trkpt lat="46.91341910" lon="7.16668747"><ele>589.90625</ele><time>2007-09-21T15:10:09Z</time></trkpt>
<trkpt lat="46.91311969" lon="7.16562574"><ele>589.90625</ele><time>2007-09-21T15:10:23Z</time></trkpt>
<trkpt lat="46.91327149" lon="7.16516549"><ele>590.867432</ele><time>2007-09-21T15:10:32Z</time></trkpt>
<trkpt lat="46.91332547" lon="7.16515208"><ele>589.90625</ele><time>2007-09-21T15:10:33Z</time></trkpt>
<trkpt lat="46.91365832" lon="7.16515040"><ele>587.983398</ele><time>2007-09-21T15:10:39Z</time></trkpt>
<trkpt lat="46.91374825" lon="7.16513682"><ele>587.983398</ele><time>2007-09-21T15:10:41Z</time></trkpt>
<trkpt lat="46.91387390" lon="7.16501805"><ele>587.021973</ele><time>2007-09-21T15:10:45Z</time></trkpt>
<trkpt lat="46.91394556" lon="7.16489953"><ele>584.138184</ele><time>2007-09-21T15:10:47Z</time></trkpt>
<trkpt lat="46.91410666" lon="7.16455738"><ele>579.812256</ele><time>2007-09-21T15:10:52Z</time></trkpt>
<trkpt lat="46.91421412" lon="7.16437306"><ele>577.889648</ele><time>2007-09-21T15:10:55Z</time></trkpt>
<trkpt lat="46.91431194" lon="7.16389999"><ele>576.928467</ele><time>2007-09-21T15:11:00Z</time></trkpt>
<trkpt lat="46.91433784" lon="7.16345357"><ele>576.928467</ele><time>2007-09-21T15:11:07Z</time></trkpt>
<trkpt lat="46.91446365" lon="7.16338727"><ele>576.928467</ele><time>2007-09-21T15:11:11Z</time></trkpt>
<trkpt lat="46.91465241" lon="7.16333379"><ele>575.967041</ele><time>2007-09-21T15:11:16Z</time></trkpt>
<trkpt lat="46.91532732" lon="7.16343538"><ele>577.889648</ele><time>2007-09-21T15:11:29Z</time></trkpt>
<trkpt lat="46.91575916" lon="7.16345935"><ele>580.773682</ele><time>2007-09-21T15:11:39Z</time></trkpt>
<trkpt lat="46.91588514" lon="7.16347184"><ele>580.773682</ele><time>2007-09-21T15:11:41Z</time></trkpt>
<trkpt lat="46.91609208" lon="7.16349707"><ele>582.215576</ele><time>2007-09-21T15:11:44Z</time></trkpt>
<trkpt lat="46.91631689" lon="7.16348282"><ele>584.138184</ele><time>2007-09-21T15:11:48Z</time></trkpt>
<trkpt lat="46.91699180" lon="7.16357125"><ele>585.099609</ele><time>2007-09-21T15:12:00Z</time></trkpt>
<trkpt lat="46.91724384" lon="7.16366186"><ele>584.138184</ele><time>2007-09-21T15:12:05Z</time></trkpt>
<trkpt lat="46.91732490" lon="7.16370083"><ele>583.176758</ele><time>2007-09-21T15:12:07Z</time></trkpt>
<trkpt lat="46.91781121" lon="7.16392153"><ele>579.812256</ele><time>2007-09-21T15:12:17Z</time></trkpt>
<trkpt lat="46.91804515" lon="7.16394659"><ele>579.812256</ele><time>2007-09-21T15:12:21Z</time></trkpt>
<trkpt lat="46.91826903" lon="7.16353848"><ele>575.005859</ele><time>2007-09-21T15:12:27Z</time></trkpt>
<trkpt lat="46.91830440" lon="7.16330194"><ele>572.121826</ele><time>2007-09-21T15:12:30Z</time></trkpt>
<trkpt lat="46.91842955" lon="7.16294688"><ele>566.834473</ele><time>2007-09-21T15:12:34Z</time></trkpt>
<trkpt lat="46.91847397" lon="7.16273658"><ele>565.873291</ele><time>2007-09-21T15:12:36Z</time></trkpt>
<trkpt lat="46.91855418" lon="7.16240793"><ele>564.911865</ele><time>2007-09-21T15:12:39Z</time></trkpt>
<trkpt lat="46.91882132" lon="7.16127754"><ele>561.06665</ele><time>2007-09-21T15:12:49Z</time></trkpt>
<trkpt lat="46.91883900" lon="7.16117243"><ele>560.105225</ele><time>2007-09-21T15:12:50Z</time></trkpt>
<trkpt lat="46.91903531" lon="7.16051504"><ele>559.144043</ele><time>2007-09-21T15:12:56Z</time></trkpt>
<trkpt lat="46.91949304" lon="7.16007943"><ele>560.105225</ele><time>2007-09-21T15:13:04Z</time></trkpt>
<trkpt lat="46.92041882" lon="7.15977265"><ele>561.06665</ele><time>2007-09-21T15:13:19Z</time></trkpt>
<trkpt lat="46.92065251" lon="7.15970577"><ele>562.028076</ele><time>2007-09-21T15:13:28Z</time></trkpt>
<trkpt lat="46.92084152" lon="7.15975732"><ele>562.028076</ele><time>2007-09-21T15:13:34Z</time></trkpt>
<trkpt lat="46.92105744" lon="7.15976930"><ele>562.028076</ele><time>2007-09-21T15:13:39Z</time></trkpt>
<trkpt lat="46.92135424" lon="7.15975463"><ele>562.989258</ele><time>2007-09-21T15:13:47Z</time></trkpt>
<trkpt lat="46.92163311" lon="7.15976637"><ele>562.989258</ele><time>2007-09-21T15:13:55Z</time></trkpt>
<trkpt lat="46.92185800" lon="7.15975204"><ele>563.950439</ele><time>2007-09-21T15:14:01Z</time></trkpt>
<trkpt lat="46.92255076" lon="7.15980099"><ele>562.989258</ele><time>2007-09-21T15:14:13Z</time></trkpt>
<trkpt lat="46.92308167" lon="7.15989017"><ele>562.028076</ele><time>2007-09-21T15:14:21Z</time></trkpt>
<trkpt lat="46.92333355" lon="7.15988883"><ele>562.028076</ele><time>2007-09-21T15:14:25Z</time></trkpt>
<trkpt lat="46.92353094" lon="7.15969085"><ele>561.06665</ele><time>2007-09-21T15:14:30Z</time></trkpt>
<trkpt lat="46.92365633" lon="7.15945389"><ele>561.06665</ele><time>2007-09-21T15:14:33Z</time></trkpt>
<trkpt lat="46.92370947" lon="7.15912540"><ele>560.105225</ele><time>2007-09-21T15:14:37Z</time></trkpt>
<trkpt lat="46.92357268" lon="7.15833834"><ele>561.06665</ele><time>2007-09-21T15:14:47Z</time></trkpt>
<trkpt lat="46.92338283" lon="7.15797172"><ele>562.028076</ele><time>2007-09-21T15:14:53Z</time></trkpt>
<trkpt lat="46.92327403" lon="7.15761775"><ele>562.028076</ele><time>2007-09-21T15:14:58Z</time></trkpt>
<trkpt lat="46.92322827" lon="7.15730293"><ele>562.028076</ele><time>2007-09-21T15:15:03Z</time></trkpt>
<trkpt lat="46.92300975" lon="7.15621429"><ele>562.028076</ele><time>2007-09-21T15:15:15Z</time></trkpt>
<trkpt lat="46.92285544" lon="7.15566368"><ele>563.950439</ele><time>2007-09-21T15:15:22Z</time></trkpt>
<trkpt lat="46.92270105" lon="7.15506052"><ele>564.911865</ele><time>2007-09-21T15:15:34Z</time></trkpt>
<trkpt lat="46.92272787" lon="7.15500788"><ele>564.911865</ele><time>2007-09-21T15:15:38Z</time></trkpt>
<trkpt lat="46.92305116" lon="7.15478299"><ele>563.950439</ele><time>2007-09-21T15:15:53Z</time></trkpt>
<trkpt lat="46.92377863" lon="7.15430648"><ele>562.028076</ele><time>2007-09-21T15:16:07Z</time></trkpt>
<trkpt lat="46.92473944" lon="7.15365806"><ele>562.028076</ele><time>2007-09-21T15:16:24Z</time></trkpt>
<trkpt lat="46.92501789" lon="7.15348589"><ele>563.950439</ele><time>2007-09-21T15:16:30Z</time></trkpt>
<trkpt lat="46.92508972" lon="7.15341984"><ele>564.911865</ele><time>2007-09-21T15:16:32Z</time></trkpt>
<trkpt lat="46.92510724" lon="7.15324910"><ele>563.950439</ele><time>2007-09-21T15:16:35Z</time></trkpt>
<trkpt lat="46.92506173" lon="7.15301299"><ele>562.989258</ele><time>2007-09-21T15:16:38Z</time></trkpt>
<trkpt lat="46.92524085" lon="7.15272314"><ele>562.989258</ele><time>2007-09-21T15:16:44Z</time></trkpt>
<trkpt lat="46.92606739" lon="7.15229860"><ele>563.950439</ele><time>2007-09-21T15:17:01Z</time></trkpt>
<trkpt lat="46.92672319" lon="7.15194060"><ele>562.028076</ele><time>2007-09-21T15:17:13Z</time></trkpt>
<trkpt lat="46.92719023" lon="7.15167549"><ele>562.028076</ele><time>2007-09-21T15:17:22Z</time></trkpt>
<trkpt lat="46.92731654" lon="7.15183239"><ele>561.06665</ele><time>2007-09-21T15:17:27Z</time></trkpt>
<trkpt lat="46.92774218" lon="7.15295934"><ele>560.105225</ele><time>2007-09-21T15:17:42Z</time></trkpt>
<trkpt lat="46.92831265" lon="7.15447948"><ele>559.144043</ele><time>2007-09-21T15:17:59Z</time></trkpt>
<trkpt lat="46.92839429" lon="7.15474167"><ele>560.105225</ele><time>2007-09-21T15:18:03Z</time></trkpt>
<trkpt lat="46.92852027" lon="7.15478039"><ele>561.06665</ele><time>2007-09-21T15:18:07Z</time></trkpt>
<trkpt lat="46.92877189" lon="7.15466087"><ele>555.779297</ele><time>2007-09-21T15:18:11Z</time></trkpt>
<trkpt lat="46.92905931" lon="7.15451494"><ele>551.934082</ele><time>2007-09-21T15:18:15Z</time></trkpt>
<trkpt lat="46.92933784" lon="7.15436901"><ele>550.972656</ele><time>2007-09-21T15:18:19Z</time></trkpt>
<trkpt lat="46.92949927" lon="7.15417120"><ele>550.011475</ele><time>2007-09-21T15:18:22Z</time></trkpt>
<trkpt lat="46.92955275" lon="7.15398705"><ele>549.050049</ele><time>2007-09-21T15:18:24Z</time></trkpt>
<trkpt lat="46.92974076" lon="7.15360525"><ele>543.762817</ele><time>2007-09-21T15:18:29Z</time></trkpt>
<trkpt lat="46.93095328" lon="7.15286354"><ele>541.84021</ele><time>2007-09-21T15:18:46Z</time></trkpt>
<trkpt lat="46.93143801" lon="7.15246699"><ele>540.878906</ele><time>2007-09-21T15:18:55Z</time></trkpt>
<trkpt lat="46.93159928" lon="7.15220346"><ele>541.84021</ele><time>2007-09-21T15:18:59Z</time></trkpt>
<trkpt lat="46.93167044" lon="7.15187481"><ele>540.878906</ele><time>2007-09-21T15:19:03Z</time></trkpt>
<trkpt lat="46.93169701" lon="7.15173022"><ele>541.84021</ele><time>2007-09-21T15:19:05Z</time></trkpt>
<trkpt lat="46.93184076" lon="7.15165067"><ele>541.84021</ele><time>2007-09-21T15:19:10Z</time></trkpt>
<trkpt lat="46.93198510" lon="7.15182066"><ele>539.917603</ele><time>2007-09-21T15:19:13Z</time></trkpt>
<trkpt lat="46.93227385" lon="7.15218678"><ele>536.072388</ele><time>2007-09-21T15:19:18Z</time></trkpt>
<trkpt lat="46.93248139" lon="7.15243514"><ele>535.110962</ele><time>2007-09-21T15:19:21Z</time></trkpt>
<trkpt lat="46.93265288" lon="7.15268374"><ele>533.188354</ele><time>2007-09-21T15:19:24Z</time></trkpt>
<trkpt lat="46.93298623" lon="7.15286580"><ele>530.785156</ele><time>2007-09-21T15:19:29Z</time></trkpt>
<trkpt lat="46.93329200" lon="7.15286421"><ele>533.188354</ele><time>2007-09-21T15:19:33Z</time></trkpt>
<trkpt lat="46.93335503" lon="7.15286387"><ele>533.188354</ele><time>2007-09-21T15:19:34Z</time></trkpt>
<trkpt lat="46.93355343" lon="7.15307292"><ele>535.110962</ele><time>2007-09-21T15:19:39Z</time></trkpt>
<trkpt lat="46.93360792" lon="7.15329587"><ele>536.072388</ele><time>2007-09-21T15:19:42Z</time></trkpt>
<trkpt lat="46.93368134" lon="7.15386014"><ele>538.956299</ele><time>2007-09-21T15:19:49Z</time></trkpt>
<trkpt lat="46.93402450" lon="7.15440991"><ele>540.878906</ele><time>2007-09-21T15:19:58Z</time></trkpt>
<trkpt lat="46.93423220" lon="7.15473706"><ele>542.801514</ele><time>2007-09-21T15:20:04Z</time></trkpt>
<trkpt lat="46.93433153" lon="7.15489414"><ele>542.801514</ele><time>2007-09-21T15:20:07Z</time></trkpt>
<trkpt lat="46.93441300" lon="7.15510385"><ele>546.16626</ele><time>2007-09-21T15:20:11Z</time></trkpt>
<trkpt lat="46.93427880" lon="7.15540661"><ele>547.127441</ele><time>2007-09-21T15:20:17Z</time></trkpt>
<trkpt lat="46.93412734" lon="7.15597205"><ele>550.011475</ele><time>2007-09-21T15:20:27Z</time></trkpt>
<trkpt lat="46.93409130" lon="7.15597222"><ele>550.011475</ele><time>2007-09-21T15:20:40Z</time></trkpt>
<trkpt lat="46.93409130" lon="7.15597222"><ele>550.972656</ele><time>2007-09-21T15:21:19Z</time></trkpt>
<trkpt lat="46.93409130" lon="7.15597222"><ele>546.16626</ele><time>2007-09-21T17:50:12Z</time></trkpt>
</trkseg></trk></gpx>